<?xml version="1.0" encoding="UTF-8" standalone="no" ?>
<gpx xmlns="http://www.topografix.com/GPX/1/1" xmlns:xsi="http://www.w3.org/2001/XMLSchema-instance" xsi:schemaLocation="http://www.topografix.com/GPX/1/1 http://www.topografix.com/GPX/1/1/gpx.xsd" version="1.1" creator="VisuGPX - https://www.visugpx.com">
  <metadata>
    <name>De Gourgé à Thénezay</name>
  </metadata>
  <trk>
    <name><![CDATA[De Gourgé à Thénezay_1]]></name>
    <extensions>
      <line xmlns="http://www.topografix.com/GPX/gpx_style/0/2">
        <color>00FFFF</color>
        <width>4</width>
      </line>
    </extensions>
    <trkseg>
      <trkpt lat="46.72818" lon="-0.16484">
        <ele>123.9</ele>
        <time>2017-11-18T22:26:19.000Z</time>
      </trkpt>
      <trkpt lat="46.72818" lon="-0.16484">
        <ele>123.9</ele>
        <time>2017-11-18T22:26:19.000Z</time>
      </trkpt>
      <trkpt lat="46.72831" lon="-0.16422">
        <ele>119.7</ele>
        <time>2017-11-18T22:26:20.190Z</time>
      </trkpt>
      <trkpt lat="46.72835" lon="-0.16372">
        <ele>116.8</ele>
        <time>2017-11-18T22:26:21.101Z</time>
      </trkpt>
      <trkpt lat="46.7285" lon="-0.16183">
        <ele>112.4</ele>
        <time>2017-11-18T22:26:24.583Z</time>
      </trkpt>
      <trkpt lat="46.72869" lon="-0.16027">
        <ele>109.7</ele>
        <time>2017-11-18T22:26:27.498Z</time>
      </trkpt>
      <trkpt lat="46.72878" lon="-0.15919">
        <ele>107.5</ele>
        <time>2017-11-18T22:26:29.476Z</time>
      </trkpt>
      <trkpt lat="46.72887" lon="-0.1584">
        <ele>106.1</ele>
        <time>2017-11-18T22:26:30.948Z</time>
      </trkpt>
      <trkpt lat="46.72882" lon="-0.15831">
        <ele>106.2</ele>
        <time>2017-11-18T22:26:31.143Z</time>
      </trkpt>
      <trkpt lat="46.72889" lon="-0.15823">
        <ele>105.6</ele>
        <time>2017-11-18T22:26:31.376Z</time>
      </trkpt>
      <trkpt lat="46.72899" lon="-0.15771">
        <ele>102.2</ele>
        <time>2017-11-18T22:26:32.362Z</time>
      </trkpt>
      <trkpt lat="46.72927" lon="-0.15677">
        <ele>97.5</ele>
        <time>2017-11-18T22:26:34.245Z</time>
      </trkpt>
      <trkpt lat="46.72955" lon="-0.15608">
        <ele>95</ele>
        <time>2017-11-18T22:26:35.707Z</time>
      </trkpt>
      <trkpt lat="46.72979" lon="-0.1555">
        <ele>94.2</ele>
        <time>2017-11-18T22:26:36.941Z</time>
      </trkpt>
      <trkpt lat="46.73003" lon="-0.1549">
        <ele>96.9</ele>
        <time>2017-11-18T22:26:38.211Z</time>
      </trkpt>
      <trkpt lat="46.73002" lon="-0.1549">
        <ele>96.9</ele>
        <time>2017-11-18T22:26:38.214Z</time>
      </trkpt>
      <trkpt lat="46.73004" lon="-0.15492">
        <ele>96.9</ele>
        <time>2017-11-18T22:26:38.265Z</time>
      </trkpt>
      <trkpt lat="46.73007" lon="-0.15485">
        <ele>96.9</ele>
        <time>2017-11-18T22:26:38.416Z</time>
      </trkpt>
      <trkpt lat="46.73014" lon="-0.15489">
        <ele>96.7</ele>
        <time>2017-11-18T22:26:38.617Z</time>
      </trkpt>
      <trkpt lat="46.73027" lon="-0.15499">
        <ele>96.1</ele>
        <time>2017-11-18T22:26:39.010Z</time>
      </trkpt>
      <trkpt lat="46.7304" lon="-0.15509">
        <ele>95.8</ele>
        <time>2017-11-18T22:26:39.403Z</time>
      </trkpt>
      <trkpt lat="46.73046" lon="-0.15513">
        <ele>95.8</ele>
        <time>2017-11-18T22:26:39.579Z</time>
      </trkpt>
      <trkpt lat="46.7305" lon="-0.15501">
        <ele>96</ele>
        <time>2017-11-18T22:26:39.823Z</time>
      </trkpt>
      <trkpt lat="46.73066" lon="-0.15464">
        <ele>96.8</ele>
        <time>2017-11-18T22:26:40.624Z</time>
      </trkpt>
      <trkpt lat="46.73097" lon="-0.15404">
        <ele>101.4</ele>
        <time>2017-11-18T22:26:42.000Z</time>
      </trkpt>
      <trkpt lat="46.73108" lon="-0.1538">
        <ele>102.9</ele>
        <time>2017-11-18T22:26:42.529Z</time>
      </trkpt>
      <trkpt lat="46.73112" lon="-0.15371">
        <ele>103.3</ele>
        <time>2017-11-18T22:26:42.725Z</time>
      </trkpt>
      <trkpt lat="46.73114" lon="-0.15371">
        <ele>103.4</ele>
        <time>2017-11-18T22:26:42.778Z</time>
      </trkpt>
      <trkpt lat="46.73121" lon="-0.15373">
        <ele>103.3</ele>
        <time>2017-11-18T22:26:42.969Z</time>
      </trkpt>
      <trkpt lat="46.73127" lon="-0.15371">
        <ele>103.7</ele>
        <time>2017-11-18T22:26:43.133Z</time>
      </trkpt>
      <trkpt lat="46.73134" lon="-0.15368">
        <ele>104.1</ele>
        <time>2017-11-18T22:26:43.328Z</time>
      </trkpt>
      <trkpt lat="46.73137" lon="-0.15366">
        <ele>104.4</ele>
        <time>2017-11-18T22:26:43.416Z</time>
      </trkpt>
      <trkpt lat="46.73138" lon="-0.15362">
        <ele>104.9</ele>
        <time>2017-11-18T22:26:43.494Z</time>
      </trkpt>
      <trkpt lat="46.73144" lon="-0.15346">
        <ele>106.1</ele>
        <time>2017-11-18T22:26:43.828Z</time>
      </trkpt>
      <trkpt lat="46.73165" lon="-0.15288">
        <ele>110.2</ele>
        <time>2017-11-18T22:26:45.029Z</time>
      </trkpt>
      <trkpt lat="46.73194" lon="-0.15199">
        <ele>113.9</ele>
        <time>2017-11-18T22:26:46.834Z</time>
      </trkpt>
      <trkpt lat="46.7323" lon="-0.15112">
        <ele>117.7</ele>
        <time>2017-11-18T22:26:48.695Z</time>
      </trkpt>
      <trkpt lat="46.7328" lon="-0.14994">
        <ele>122.7</ele>
        <time>2017-11-18T22:26:51.236Z</time>
      </trkpt>
      <trkpt lat="46.73308" lon="-0.14941">
        <ele>126.3</ele>
        <time>2017-11-18T22:26:52.461Z</time>
      </trkpt>
      <trkpt lat="46.73318" lon="-0.14931">
        <ele>127.4</ele>
        <time>2017-11-18T22:26:52.785Z</time>
      </trkpt>
      <trkpt lat="46.73335" lon="-0.14921">
        <ele>128.7</ele>
        <time>2017-11-18T22:26:53.275Z</time>
      </trkpt>
      <trkpt lat="46.73344" lon="-0.14917">
        <ele>129</ele>
        <time>2017-11-18T22:26:53.526Z</time>
      </trkpt>
      <trkpt lat="46.73361" lon="-0.14905">
        <ele>129.8</ele>
        <time>2017-11-18T22:26:54.031Z</time>
      </trkpt>
      <trkpt lat="46.73392" lon="-0.1487">
        <ele>131.3</ele>
        <time>2017-11-18T22:26:55.078Z</time>
      </trkpt>
      <trkpt lat="46.73407" lon="-0.14851">
        <ele>131.7</ele>
        <time>2017-11-18T22:26:55.609Z</time>
      </trkpt>
      <trkpt lat="46.73433" lon="-0.14813">
        <ele>133.5</ele>
        <time>2017-11-18T22:26:56.592Z</time>
      </trkpt>
      <trkpt lat="46.73456" lon="-0.14771">
        <ele>137.3</ele>
        <time>2017-11-18T22:26:57.576Z</time>
      </trkpt>
      <trkpt lat="46.73495" lon="-0.14721">
        <ele>139.7</ele>
        <time>2017-11-18T22:26:58.963Z</time>
      </trkpt>
      <trkpt lat="46.73513" lon="-0.14695">
        <ele>141</ele>
        <time>2017-11-18T22:26:59.638Z</time>
      </trkpt>
      <trkpt lat="46.73515" lon="-0.14693">
        <ele>141</ele>
        <time>2017-11-18T22:26:59.704Z</time>
      </trkpt>
      <trkpt lat="46.73558" lon="-0.1462">
        <ele>145.4</ele>
        <time>2017-11-18T22:27:01.467Z</time>
      </trkpt>
      <trkpt lat="46.7359" lon="-0.14558">
        <ele>148.6</ele>
        <time>2017-11-18T22:27:02.888Z</time>
      </trkpt>
      <trkpt lat="46.73683" lon="-0.14381">
        <ele>150.7</ele>
        <time>2017-11-18T22:27:06.972Z</time>
      </trkpt>
      <trkpt lat="46.73718" lon="-0.14312">
        <ele>153.8</ele>
        <time>2017-11-18T22:27:08.544Z</time>
      </trkpt>
      <trkpt lat="46.73744" lon="-0.14254">
        <ele>156.9</ele>
        <time>2017-11-18T22:27:09.813Z</time>
      </trkpt>
      <trkpt lat="46.73758" lon="-0.14217">
        <ele>158.3</ele>
        <time>2017-11-18T22:27:10.587Z</time>
      </trkpt>
      <trkpt lat="46.73778" lon="-0.14178">
        <ele>159.6</ele>
        <time>2017-11-18T22:27:11.479Z</time>
      </trkpt>
      <trkpt lat="46.73819" lon="-0.14114">
        <ele>160.5</ele>
        <time>2017-11-18T22:27:13.083Z</time>
      </trkpt>
      <trkpt lat="46.73834" lon="-0.14097">
        <ele>160.5</ele>
        <time>2017-11-18T22:27:13.590Z</time>
      </trkpt>
      <trkpt lat="46.73901" lon="-0.13988">
        <ele>161</ele>
        <time>2017-11-18T22:27:16.271Z</time>
      </trkpt>
      <trkpt lat="46.73917" lon="-0.13971">
        <ele>161</ele>
        <time>2017-11-18T22:27:16.800Z</time>
      </trkpt>
      <trkpt lat="46.73865" lon="-0.13914">
        <ele>161</ele>
        <time>2017-11-18T22:27:18.538Z</time>
      </trkpt>
      <trkpt lat="46.73727" lon="-0.13767">
        <ele>162</ele>
        <time>2017-11-18T22:27:23.103Z</time>
      </trkpt>
      <trkpt lat="46.73627" lon="-0.13659">
        <ele>161</ele>
        <time>2017-11-18T22:27:26.427Z</time>
      </trkpt>
      <trkpt lat="46.73583" lon="-0.13612">
        <ele>161</ele>
        <time>2017-11-18T22:27:27.882Z</time>
      </trkpt>
      <trkpt lat="46.73581" lon="-0.13609">
        <ele>161</ele>
        <time>2017-11-18T22:27:27.960Z</time>
      </trkpt>
      <trkpt lat="46.7357" lon="-0.13598">
        <ele>161</ele>
        <time>2017-11-18T22:27:28.316Z</time>
      </trkpt>
      <trkpt lat="46.73585" lon="-0.13562">
        <ele>161</ele>
        <time>2017-11-18T22:27:29.088Z</time>
      </trkpt>
      <trkpt lat="46.73611" lon="-0.13502">
        <ele>161</ele>
        <time>2017-11-18T22:27:30.388Z</time>
      </trkpt>
      <trkpt lat="46.7363" lon="-0.13456">
        <ele>160.3</ele>
        <time>2017-11-18T22:27:31.372Z</time>
      </trkpt>
      <trkpt lat="46.73637" lon="-0.13434">
        <ele>160.1</ele>
        <time>2017-11-18T22:27:31.816Z</time>
      </trkpt>
      <trkpt lat="46.73641" lon="-0.13408">
        <ele>160</ele>
        <time>2017-11-18T22:27:32.304Z</time>
      </trkpt>
      <trkpt lat="46.73641" lon="-0.13388">
        <ele>160</ele>
        <time>2017-11-18T22:27:32.670Z</time>
      </trkpt>
      <trkpt lat="46.73629" lon="-0.13295">
        <ele>160</ele>
        <time>2017-11-18T22:27:34.403Z</time>
      </trkpt>
      <trkpt lat="46.73622" lon="-0.13233">
        <ele>160</ele>
        <time>2017-11-18T22:27:35.554Z</time>
      </trkpt>
      <trkpt lat="46.73624" lon="-0.13203">
        <ele>160</ele>
        <time>2017-11-18T22:27:36.106Z</time>
      </trkpt>
      <trkpt lat="46.73632" lon="-0.13206">
        <ele>160</ele>
        <time>2017-11-18T22:27:36.327Z</time>
      </trkpt>
      <trkpt lat="46.7365" lon="-0.13224">
        <ele>160</ele>
        <time>2017-11-18T22:27:36.910Z</time>
      </trkpt>
      <trkpt lat="46.73694" lon="-0.1327">
        <ele>160</ele>
        <time>2017-11-18T22:27:38.356Z</time>
      </trkpt>
      <trkpt lat="46.73752" lon="-0.13336">
        <ele>159.1</ele>
        <time>2017-11-18T22:27:40.321Z</time>
      </trkpt>
      <trkpt lat="46.73813" lon="-0.13236">
        <ele>158</ele>
        <time>2017-11-18T22:27:42.772Z</time>
      </trkpt>
      <trkpt lat="46.73814" lon="-0.13232">
        <ele>158</ele>
        <time>2017-11-18T22:27:42.849Z</time>
      </trkpt>
      <trkpt lat="46.73815" lon="-0.13229">
        <ele>158</ele>
        <time>2017-11-18T22:27:42.911Z</time>
      </trkpt>
      <trkpt lat="46.73816" lon="-0.1321">
        <ele>158</ele>
        <time>2017-11-18T22:27:43.260Z</time>
      </trkpt>
      <trkpt lat="46.7381" lon="-0.13143">
        <ele>157.8</ele>
        <time>2017-11-18T22:27:44.497Z</time>
      </trkpt>
      <trkpt lat="46.73802" lon="-0.12984">
        <ele>157.1</ele>
        <time>2017-11-18T22:27:47.416Z</time>
      </trkpt>
      <trkpt lat="46.73801" lon="-0.12939">
        <ele>157</ele>
        <time>2017-11-18T22:27:48.240Z</time>
      </trkpt>
      <trkpt lat="46.73805" lon="-0.12916">
        <ele>157</ele>
        <time>2017-11-18T22:27:48.675Z</time>
      </trkpt>
      <trkpt lat="46.73814" lon="-0.12881">
        <ele>156.7</ele>
        <time>2017-11-18T22:27:49.360Z</time>
      </trkpt>
      <trkpt lat="46.7384" lon="-0.12833">
        <ele>155.8</ele>
        <time>2017-11-18T22:27:50.480Z</time>
      </trkpt>
      <trkpt lat="46.7386" lon="-0.12798">
        <ele>155</ele>
        <time>2017-11-18T22:27:51.310Z</time>
      </trkpt>
      <trkpt lat="46.73862" lon="-0.12794">
        <ele>155</ele>
        <time>2017-11-18T22:27:51.405Z</time>
      </trkpt>
      <trkpt lat="46.73864" lon="-0.12787">
        <ele>155</ele>
        <time>2017-11-18T22:27:51.544Z</time>
      </trkpt>
      <trkpt lat="46.73868" lon="-0.12785">
        <ele>154.9</ele>
        <time>2017-11-18T22:27:51.657Z</time>
      </trkpt>
      <trkpt lat="46.73894" lon="-0.12756">
        <ele>154.8</ele>
        <time>2017-11-18T22:27:52.531Z</time>
      </trkpt>
      <trkpt lat="46.73897" lon="-0.12743">
        <ele>154.8</ele>
        <time>2017-11-18T22:27:52.782Z</time>
      </trkpt>
      <trkpt lat="46.7391" lon="-0.127">
        <ele>155</ele>
        <time>2017-11-18T22:27:53.643Z</time>
      </trkpt>
      <trkpt lat="46.73926" lon="-0.12587">
        <ele>154</ele>
        <time>2017-11-18T22:27:55.756Z</time>
      </trkpt>
      <trkpt lat="46.73943" lon="-0.12516">
        <ele>153</ele>
        <time>2017-11-18T22:27:57.133Z</time>
      </trkpt>
      <trkpt lat="46.73949" lon="-0.12478">
        <ele>152.2</ele>
        <time>2017-11-18T22:27:57.847Z</time>
      </trkpt>
      <trkpt lat="46.73949" lon="-0.12476">
        <ele>152.1</ele>
        <time>2017-11-18T22:27:57.877Z</time>
      </trkpt>
      <trkpt lat="46.73949" lon="-0.12471">
        <ele>152</ele>
        <time>2017-11-18T22:27:57.975Z</time>
      </trkpt>
      <trkpt lat="46.73951" lon="-0.12404">
        <ele>151.3</ele>
        <time>2017-11-18T22:27:59.203Z</time>
      </trkpt>
      <trkpt lat="46.73945" lon="-0.12352">
        <ele>149.7</ele>
        <time>2017-11-18T22:28:00.169Z</time>
      </trkpt>
      <trkpt lat="46.7394" lon="-0.12337">
        <ele>149.3</ele>
        <time>2017-11-18T22:28:00.474Z</time>
      </trkpt>
      <trkpt lat="46.73927" lon="-0.12319">
        <ele>148.8</ele>
        <time>2017-11-18T22:28:00.953Z</time>
      </trkpt>
      <trkpt lat="46.73915" lon="-0.12296">
        <ele>147.3</ele>
        <time>2017-11-18T22:28:01.482Z</time>
      </trkpt>
      <trkpt lat="46.73907" lon="-0.12283">
        <ele>146.7</ele>
        <time>2017-11-18T22:28:01.802Z</time>
      </trkpt>
      <trkpt lat="46.73895" lon="-0.12275">
        <ele>146.6</ele>
        <time>2017-11-18T22:28:02.155Z</time>
      </trkpt>
      <trkpt lat="46.73894" lon="-0.12234">
        <ele>143.7</ele>
        <time>2017-11-18T22:28:02.906Z</time>
      </trkpt>
      <trkpt lat="46.73887" lon="-0.12202">
        <ele>141.7</ele>
        <time>2017-11-18T22:28:03.521Z</time>
      </trkpt>
      <trkpt lat="46.73873" lon="-0.12147">
        <ele>140.4</ele>
        <time>2017-11-18T22:28:04.595Z</time>
      </trkpt>
      <trkpt lat="46.73865" lon="-0.12107">
        <ele>139.7</ele>
        <time>2017-11-18T22:28:05.358Z</time>
      </trkpt>
      <trkpt lat="46.73861" lon="-0.12043">
        <ele>137.6</ele>
        <time>2017-11-18T22:28:06.535Z</time>
      </trkpt>
      <trkpt lat="46.73856" lon="-0.11932">
        <ele>134.7</ele>
        <time>2017-11-18T22:28:08.572Z</time>
      </trkpt>
      <trkpt lat="46.73857" lon="-0.11905">
        <ele>134.4</ele>
        <time>2017-11-18T22:28:09.067Z</time>
      </trkpt>
      <trkpt lat="46.7386" lon="-0.11892">
        <ele>134.9</ele>
        <time>2017-11-18T22:28:09.318Z</time>
      </trkpt>
      <trkpt lat="46.73867" lon="-0.1187">
        <ele>135.1</ele>
        <time>2017-11-18T22:28:09.762Z</time>
      </trkpt>
      <trkpt lat="46.7389" lon="-0.11792">
        <ele>138.8</ele>
        <time>2017-11-18T22:28:11.317Z</time>
      </trkpt>
      <trkpt lat="46.73899" lon="-0.11766">
        <ele>142.2</ele>
        <time>2017-11-18T22:28:11.850Z</time>
      </trkpt>
      <trkpt lat="46.7391" lon="-0.11747">
        <ele>144.2</ele>
        <time>2017-11-18T22:28:12.305Z</time>
      </trkpt>
      <trkpt lat="46.73942" lon="-0.11705">
        <ele>145.6</ele>
        <time>2017-11-18T22:28:13.455Z</time>
      </trkpt>
      <trkpt lat="46.73968" lon="-0.11673">
        <ele>146.3</ele>
        <time>2017-11-18T22:28:14.364Z</time>
      </trkpt>
      <trkpt lat="46.73974" lon="-0.11664">
        <ele>146.2</ele>
        <time>2017-11-18T22:28:14.594Z</time>
      </trkpt>
      <trkpt lat="46.73969" lon="-0.11645">
        <ele>146.9</ele>
        <time>2017-11-18T22:28:14.967Z</time>
      </trkpt>
      <trkpt lat="46.73968" lon="-0.11627">
        <ele>148</ele>
        <time>2017-11-18T22:28:15.298Z</time>
      </trkpt>
      <trkpt lat="46.7397" lon="-0.11593">
        <ele>149.7</ele>
        <time>2017-11-18T22:28:15.923Z</time>
      </trkpt>
      <trkpt lat="46.73971" lon="-0.11473">
        <ele>153</ele>
        <time>2017-11-18T22:28:18.120Z</time>
      </trkpt>
      <trkpt lat="46.73964" lon="-0.11428">
        <ele>153.2</ele>
        <time>2017-11-18T22:28:18.965Z</time>
      </trkpt>
      <trkpt lat="46.73939" lon="-0.11332">
        <ele>154.2</ele>
        <time>2017-11-18T22:28:20.845Z</time>
      </trkpt>
      <trkpt lat="46.73932" lon="-0.11309">
        <ele>154.9</ele>
        <time>2017-11-18T22:28:21.306Z</time>
      </trkpt>
      <trkpt lat="46.73922" lon="-0.1129">
        <ele>155</ele>
        <time>2017-11-18T22:28:21.745Z</time>
      </trkpt>
      <trkpt lat="46.7391" lon="-0.11267">
        <ele>155.1</ele>
        <time>2017-11-18T22:28:22.274Z</time>
      </trkpt>
      <trkpt lat="46.73873" lon="-0.11214">
        <ele>156</ele>
        <time>2017-11-18T22:28:23.659Z</time>
      </trkpt>
      <trkpt lat="46.73856" lon="-0.11193">
        <ele>156</ele>
        <time>2017-11-18T22:28:24.254Z</time>
      </trkpt>
      <trkpt lat="46.73844" lon="-0.11172">
        <ele>156</ele>
        <time>2017-11-18T22:28:24.755Z</time>
      </trkpt>
      <trkpt lat="46.73828" lon="-0.1113">
        <ele>157</ele>
        <time>2017-11-18T22:28:25.635Z</time>
      </trkpt>
      <trkpt lat="46.73818" lon="-0.11103">
        <ele>157</ele>
        <time>2017-11-18T22:28:26.191Z</time>
      </trkpt>
      <trkpt lat="46.73816" lon="-0.11097">
        <ele>157</ele>
        <time>2017-11-18T22:28:26.319Z</time>
      </trkpt>
      <trkpt lat="46.73722" lon="-0.11209">
        <ele>156</ele>
        <time>2017-11-18T22:28:29.564Z</time>
      </trkpt>
      <trkpt lat="46.73718" lon="-0.11214">
        <ele>156</ele>
        <time>2017-11-18T22:28:29.691Z</time>
      </trkpt>
      <trkpt lat="46.73587" lon="-0.11389">
        <ele>153</ele>
        <time>2017-11-18T22:28:34.463Z</time>
      </trkpt>
      <trkpt lat="46.73583" lon="-0.11394">
        <ele>153</ele>
        <time>2017-11-18T22:28:34.586Z</time>
      </trkpt>
      <trkpt lat="46.73507" lon="-0.11528">
        <ele>142.2</ele>
        <time>2017-11-18T22:28:37.784Z</time>
      </trkpt>
      <trkpt lat="46.73504" lon="-0.11533">
        <ele>141.5</ele>
        <time>2017-11-18T22:28:37.907Z</time>
      </trkpt>
      <trkpt lat="46.73422" lon="-0.11437">
        <ele>145.7</ele>
        <time>2017-11-18T22:28:40.717Z</time>
      </trkpt>
      <trkpt lat="46.73418" lon="-0.11433">
        <ele>145.6</ele>
        <time>2017-11-18T22:28:40.840Z</time>
      </trkpt>
      <trkpt lat="46.73415" lon="-0.11438">
        <ele>145.1</ele>
        <time>2017-11-18T22:28:40.974Z</time>
      </trkpt>
      <trkpt lat="46.73359" lon="-0.11365">
        <ele>144.7</ele>
        <time>2017-11-18T22:28:42.980Z</time>
      </trkpt>
      <trkpt lat="46.73347" lon="-0.11344">
        <ele>144.3</ele>
        <time>2017-11-18T22:28:43.489Z</time>
      </trkpt>
      <trkpt lat="46.73344" lon="-0.11339">
        <ele>144.1</ele>
        <time>2017-11-18T22:28:43.603Z</time>
      </trkpt>
      <trkpt lat="46.7332" lon="-0.11295">
        <ele>143.7</ele>
        <time>2017-11-18T22:28:44.633Z</time>
      </trkpt>
      <trkpt lat="46.73303" lon="-0.11239">
        <ele>144.3</ele>
        <time>2017-11-18T22:28:45.755Z</time>
      </trkpt>
      <trkpt lat="46.73287" lon="-0.11181">
        <ele>145.6</ele>
        <time>2017-11-18T22:28:46.900Z</time>
      </trkpt>
      <trkpt lat="46.73277" lon="-0.11141">
        <ele>145</ele>
        <time>2017-11-18T22:28:47.680Z</time>
      </trkpt>
      <trkpt lat="46.73273" lon="-0.11116">
        <ele>145</ele>
        <time>2017-11-18T22:28:48.150Z</time>
      </trkpt>
      <trkpt lat="46.73272" lon="-0.11093">
        <ele>145</ele>
        <time>2017-11-18T22:28:48.572Z</time>
      </trkpt>
      <trkpt lat="46.73273" lon="-0.11047">
        <ele>145.3</ele>
        <time>2017-11-18T22:28:49.415Z</time>
      </trkpt>
      <trkpt lat="46.73278" lon="-0.10961">
        <ele>145</ele>
        <time>2017-11-18T22:28:50.996Z</time>
      </trkpt>
      <trkpt lat="46.73278" lon="-0.10934">
        <ele>145</ele>
        <time>2017-11-18T22:28:51.490Z</time>
      </trkpt>
      <trkpt lat="46.73272" lon="-0.10905">
        <ele>145.4</ele>
        <time>2017-11-18T22:28:52.047Z</time>
      </trkpt>
      <trkpt lat="46.73271" lon="-0.109">
        <ele>145.5</ele>
        <time>2017-11-18T22:28:52.140Z</time>
      </trkpt>
      <trkpt lat="46.7327" lon="-0.10898">
        <ele>145.6</ele>
        <time>2017-11-18T22:28:52.185Z</time>
      </trkpt>
      <trkpt lat="46.73243" lon="-0.10835">
        <ele>147.7</ele>
        <time>2017-11-18T22:28:53.546Z</time>
      </trkpt>
      <trkpt lat="46.73204" lon="-0.10717">
        <ele>149.3</ele>
        <time>2017-11-18T22:28:55.945Z</time>
      </trkpt>
      <trkpt lat="46.73174" lon="-0.10615">
        <ele>149.7</ele>
        <time>2017-11-18T22:28:57.978Z</time>
      </trkpt>
      <trkpt lat="46.73165" lon="-0.10596">
        <ele>150</ele>
        <time>2017-11-18T22:28:58.401Z</time>
      </trkpt>
      <trkpt lat="46.73147" lon="-0.10568">
        <ele>150.6</ele>
        <time>2017-11-18T22:28:59.104Z</time>
      </trkpt>
      <trkpt lat="46.73136" lon="-0.10552">
        <ele>151.1</ele>
        <time>2017-11-18T22:28:59.519Z</time>
      </trkpt>
      <trkpt lat="46.73129" lon="-0.10537">
        <ele>151.7</ele>
        <time>2017-11-18T22:28:59.851Z</time>
      </trkpt>
      <trkpt lat="46.73082" lon="-0.10382">
        <ele>152.8</ele>
        <time>2017-11-18T22:29:02.955Z</time>
      </trkpt>
      <trkpt lat="46.73076" lon="-0.10359">
        <ele>152.3</ele>
        <time>2017-11-18T22:29:03.406Z</time>
      </trkpt>
      <trkpt lat="46.73075" lon="-0.10336">
        <ele>152.3</ele>
        <time>2017-11-18T22:29:03.828Z</time>
      </trkpt>
      <trkpt lat="46.73081" lon="-0.10294">
        <ele>151.1</ele>
        <time>2017-11-18T22:29:04.614Z</time>
      </trkpt>
      <trkpt lat="46.73101" lon="-0.10222">
        <ele>150.4</ele>
        <time>2017-11-18T22:29:06.037Z</time>
      </trkpt>
      <trkpt lat="46.73138" lon="-0.1013">
        <ele>153.3</ele>
        <time>2017-11-18T22:29:07.990Z</time>
      </trkpt>
      <trkpt lat="46.73156" lon="-0.10086">
        <ele>154</ele>
        <time>2017-11-18T22:29:08.926Z</time>
      </trkpt>
      <trkpt lat="46.73158" lon="-0.10082">
        <ele>154</ele>
        <time>2017-11-18T22:29:09.019Z</time>
      </trkpt>
      <trkpt lat="46.73157" lon="-0.10081">
        <ele>154.1</ele>
        <time>2017-11-18T22:29:09.051Z</time>
      </trkpt>
      <trkpt lat="46.73158" lon="-0.10082">
        <ele>154</ele>
        <time>2017-11-18T22:29:09.083Z</time>
      </trkpt>
      <trkpt lat="46.73151" lon="-0.10076">
        <ele>154.3</ele>
        <time>2017-11-18T22:29:09.300Z</time>
      </trkpt>
      <trkpt lat="46.73114" lon="-0.10034">
        <ele>155.8</ele>
        <time>2017-11-18T22:29:10.553Z</time>
      </trkpt>
      <trkpt lat="46.73078" lon="-0.09995">
        <ele>156</ele>
        <time>2017-11-18T22:29:11.751Z</time>
      </trkpt>
      <trkpt lat="46.73053" lon="-0.09972">
        <ele>156</ele>
        <time>2017-11-18T22:29:12.541Z</time>
      </trkpt>
      <trkpt lat="46.7302" lon="-0.09947">
        <ele>156.9</ele>
        <time>2017-11-18T22:29:13.535Z</time>
      </trkpt>
      <trkpt lat="46.73007" lon="-0.09944">
        <ele>157</ele>
        <time>2017-11-18T22:29:13.887Z</time>
      </trkpt>
      <trkpt lat="46.73" lon="-0.09944">
        <ele>157</ele>
        <time>2017-11-18T22:29:14.074Z</time>
      </trkpt>
      <trkpt lat="46.72966" lon="-0.09955">
        <ele>156</ele>
        <time>2017-11-18T22:29:15.005Z</time>
      </trkpt>
      <trkpt lat="46.72959" lon="-0.09957">
        <ele>156</ele>
        <time>2017-11-18T22:29:15.196Z</time>
      </trkpt>
      <trkpt lat="46.72955" lon="-0.09953">
        <ele>156</ele>
        <time>2017-11-18T22:29:15.326Z</time>
      </trkpt>
      <trkpt lat="46.7295" lon="-0.09946">
        <ele>156</ele>
        <time>2017-11-18T22:29:15.511Z</time>
      </trkpt>
      <trkpt lat="46.72946" lon="-0.09937">
        <ele>156</ele>
        <time>2017-11-18T22:29:15.707Z</time>
      </trkpt>
      <trkpt lat="46.72949" lon="-0.09921">
        <ele>156.1</ele>
        <time>2017-11-18T22:29:16.011Z</time>
      </trkpt>
      <trkpt lat="46.7295" lon="-0.09913">
        <ele>156.3</ele>
        <time>2017-11-18T22:29:16.160Z</time>
      </trkpt>
      <trkpt lat="46.72958" lon="-0.09864">
        <ele>157.4</ele>
        <time>2017-11-18T22:29:17.083Z</time>
      </trkpt>
      <trkpt lat="46.7296" lon="-0.09842">
        <ele>157.9</ele>
        <time>2017-11-18T22:29:17.489Z</time>
      </trkpt>
      <trkpt lat="46.72959" lon="-0.09822">
        <ele>158</ele>
        <time>2017-11-18T22:29:17.856Z</time>
      </trkpt>
      <trkpt lat="46.72956" lon="-0.09795">
        <ele>158.2</ele>
        <time>2017-11-18T22:29:18.357Z</time>
      </trkpt>
      <trkpt lat="46.72956" lon="-0.0978">
        <ele>158.4</ele>
        <time>2017-11-18T22:29:18.632Z</time>
      </trkpt>
      <trkpt lat="46.72965" lon="-0.09749">
        <ele>158.7</ele>
        <time>2017-11-18T22:29:19.249Z</time>
      </trkpt>
      <trkpt lat="46.72976" lon="-0.09729">
        <ele>159</ele>
        <time>2017-11-18T22:29:19.719Z</time>
      </trkpt>
      <trkpt lat="46.72997" lon="-0.09695">
        <ele>159</ele>
        <time>2017-11-18T22:29:20.557Z</time>
      </trkpt>
      <trkpt lat="46.73004" lon="-0.09672">
        <ele>159.1</ele>
        <time>2017-11-18T22:29:21.018Z</time>
      </trkpt>
      <trkpt lat="46.73017" lon="-0.09608">
        <ele>159.7</ele>
        <time>2017-11-18T22:29:22.240Z</time>
      </trkpt>
      <trkpt lat="46.73031" lon="-0.0956">
        <ele>160</ele>
        <time>2017-11-18T22:29:23.195Z</time>
      </trkpt>
      <trkpt lat="46.73065" lon="-0.09481">
        <ele>160</ele>
        <time>2017-11-18T22:29:24.903Z</time>
      </trkpt>
      <trkpt lat="46.73083" lon="-0.09454">
        <ele>160</ele>
        <time>2017-11-18T22:29:25.593Z</time>
      </trkpt>
      <trkpt lat="46.73102" lon="-0.09435">
        <ele>160</ele>
        <time>2017-11-18T22:29:26.208Z</time>
      </trkpt>
      <trkpt lat="46.73142" lon="-0.09402">
        <ele>159.9</ele>
        <time>2017-11-18T22:29:27.436Z</time>
      </trkpt>
      <trkpt lat="46.73172" lon="-0.0938">
        <ele>160</ele>
        <time>2017-11-18T22:29:28.333Z</time>
      </trkpt>
      <trkpt lat="46.73184" lon="-0.09367">
        <ele>160</ele>
        <time>2017-11-18T22:29:28.732Z</time>
      </trkpt>
      <trkpt lat="46.732" lon="-0.09338">
        <ele>160</ele>
        <time>2017-11-18T22:29:29.414Z</time>
      </trkpt>
      <trkpt lat="46.73226" lon="-0.09294">
        <ele>160</ele>
        <time>2017-11-18T22:29:30.478Z</time>
      </trkpt>
      <trkpt lat="46.73257" lon="-0.09244">
        <ele>160</ele>
        <time>2017-11-18T22:29:31.713Z</time>
      </trkpt>
      <trkpt lat="46.73271" lon="-0.09213">
        <ele>160</ele>
        <time>2017-11-18T22:29:32.393Z</time>
      </trkpt>
      <trkpt lat="46.7328" lon="-0.09177">
        <ele>160</ele>
        <time>2017-11-18T22:29:33.095Z</time>
      </trkpt>
      <trkpt lat="46.7328" lon="-0.09152">
        <ele>160</ele>
        <time>2017-11-18T22:29:33.553Z</time>
      </trkpt>
      <trkpt lat="46.73277" lon="-0.09087">
        <ele>160</ele>
        <time>2017-11-18T22:29:34.746Z</time>
      </trkpt>
      <trkpt lat="46.73272" lon="-0.08966">
        <ele>159</ele>
        <time>2017-11-18T22:29:36.966Z</time>
      </trkpt>
      <trkpt lat="46.73272" lon="-0.08925">
        <ele>159</ele>
        <time>2017-11-18T22:29:37.717Z</time>
      </trkpt>
      <trkpt lat="46.73274" lon="-0.08899">
        <ele>159</ele>
        <time>2017-11-18T22:29:38.196Z</time>
      </trkpt>
      <trkpt lat="46.7327" lon="-0.08877">
        <ele>158.7</ele>
        <time>2017-11-18T22:29:38.613Z</time>
      </trkpt>
      <trkpt lat="46.73267" lon="-0.08846">
        <ele>158.2</ele>
        <time>2017-11-18T22:29:39.186Z</time>
      </trkpt>
      <trkpt lat="46.73268" lon="-0.0881">
        <ele>158</ele>
        <time>2017-11-18T22:29:39.846Z</time>
      </trkpt>
      <trkpt lat="46.73272" lon="-0.08761">
        <ele>157</ele>
        <time>2017-11-18T22:29:40.750Z</time>
      </trkpt>
      <trkpt lat="46.73271" lon="-0.08747">
        <ele>157</ele>
        <time>2017-11-18T22:29:41.008Z</time>
      </trkpt>
      <trkpt lat="46.73269" lon="-0.08744">
        <ele>157</ele>
        <time>2017-11-18T22:29:41.091Z</time>
      </trkpt>
      <trkpt lat="46.73266" lon="-0.0874">
        <ele>157</ele>
        <time>2017-11-18T22:29:41.193Z</time>
      </trkpt>
      <trkpt lat="46.73264" lon="-0.08737">
        <ele>157</ele>
        <time>2017-11-18T22:29:41.270Z</time>
      </trkpt>
      <trkpt lat="46.73261" lon="-0.08711">
        <ele>156.6</ele>
        <time>2017-11-18T22:29:41.753Z</time>
      </trkpt>
      <trkpt lat="46.73229" lon="-0.08608">
        <ele>154.9</ele>
        <time>2017-11-18T22:29:43.824Z</time>
      </trkpt>
      <trkpt lat="46.732" lon="-0.08543">
        <ele>153.5</ele>
        <time>2017-11-18T22:29:45.244Z</time>
      </trkpt>
      <trkpt lat="46.73198" lon="-0.08532">
        <ele>153.2</ele>
        <time>2017-11-18T22:29:45.452Z</time>
      </trkpt>
      <trkpt lat="46.73201" lon="-0.08479">
        <ele>151.5</ele>
        <time>2017-11-18T22:29:46.426Z</time>
      </trkpt>
      <trkpt lat="46.73189" lon="-0.08448">
        <ele>150.6</ele>
        <time>2017-11-18T22:29:47.078Z</time>
      </trkpt>
      <trkpt lat="46.73182" lon="-0.08415">
        <ele>149.5</ele>
        <time>2017-11-18T22:29:47.711Z</time>
      </trkpt>
      <trkpt lat="46.73168" lon="-0.08322">
        <ele>144.7</ele>
        <time>2017-11-18T22:29:49.455Z</time>
      </trkpt>
      <trkpt lat="46.73167" lon="-0.08308">
        <ele>144.1</ele>
        <time>2017-11-18T22:29:49.713Z</time>
      </trkpt>
      <trkpt lat="46.73131" lon="-0.08239">
        <ele>145.2</ele>
        <time>2017-11-18T22:29:51.301Z</time>
      </trkpt>
      <trkpt lat="46.73086" lon="-0.08172">
        <ele>143.2</ele>
        <time>2017-11-18T22:29:53.019Z</time>
      </trkpt>
      <trkpt lat="46.73083" lon="-0.08157">
        <ele>143</ele>
        <time>2017-11-18T22:29:53.305Z</time>
      </trkpt>
      <trkpt lat="46.73052" lon="-0.08089">
        <ele>147</ele>
        <time>2017-11-18T22:29:54.801Z</time>
      </trkpt>
      <trkpt lat="46.73027" lon="-0.08029">
        <ele>151</ele>
        <time>2017-11-18T22:29:56.087Z</time>
      </trkpt>
      <trkpt lat="46.73022" lon="-0.08003">
        <ele>152.1</ele>
        <time>2017-11-18T22:29:56.582Z</time>
      </trkpt>
      <trkpt lat="46.73016" lon="-0.07982">
        <ele>152.8</ele>
        <time>2017-11-18T22:29:56.999Z</time>
      </trkpt>
      <trkpt lat="46.73015" lon="-0.07978">
        <ele>152.9</ele>
        <time>2017-11-18T22:29:57.077Z</time>
      </trkpt>
      <trkpt lat="46.73015" lon="-0.07955">
        <ele>153.3</ele>
        <time>2017-11-18T22:29:57.498Z</time>
      </trkpt>
      <trkpt lat="46.73011" lon="-0.07868">
        <ele>154.9</ele>
        <time>2017-11-18T22:29:59.095Z</time>
      </trkpt>
      <trkpt lat="46.73009" lon="-0.07858">
        <ele>155</ele>
        <time>2017-11-18T22:29:59.286Z</time>
      </trkpt>
      <trkpt lat="46.73007" lon="-0.07854">
        <ele>155</ele>
        <time>2017-11-18T22:29:59.377Z</time>
      </trkpt>
      <trkpt lat="46.73011" lon="-0.07846">
        <ele>155</ele>
        <time>2017-11-18T22:29:59.558Z</time>
      </trkpt>
      <trkpt lat="46.73021" lon="-0.0782">
        <ele>155.1</ele>
        <time>2017-11-18T22:30:00.104Z</time>
      </trkpt>
      <trkpt lat="46.73031" lon="-0.07776">
        <ele>155</ele>
        <time>2017-11-18T22:30:00.953Z</time>
      </trkpt>
      <trkpt lat="46.73041" lon="-0.07738">
        <ele>155</ele>
        <time>2017-11-18T22:30:01.698Z</time>
      </trkpt>
      <trkpt lat="46.73051" lon="-0.07718">
        <ele>155</ele>
        <time>2017-11-18T22:30:02.151Z</time>
      </trkpt>
      <trkpt lat="46.73053" lon="-0.0771">
        <ele>155</ele>
        <time>2017-11-18T22:30:02.310Z</time>
      </trkpt>
      <trkpt lat="46.73056" lon="-0.07702">
        <ele>155</ele>
        <time>2017-11-18T22:30:02.473Z</time>
      </trkpt>
      <trkpt lat="46.73057" lon="-0.07687">
        <ele>155</ele>
        <time>2017-11-18T22:30:02.749Z</time>
      </trkpt>
      <trkpt lat="46.73051" lon="-0.07657">
        <ele>155</ele>
        <time>2017-11-18T22:30:03.321Z</time>
      </trkpt>
      <trkpt lat="46.73023" lon="-0.07578">
        <ele>154.8</ele>
        <time>2017-11-18T22:30:04.950Z</time>
      </trkpt>
      <trkpt lat="46.72986" lon="-0.07516">
        <ele>154.3</ele>
        <time>2017-11-18T22:30:06.456Z</time>
      </trkpt>
      <trkpt lat="46.72923" lon="-0.07437">
        <ele>153.7</ele>
        <time>2017-11-18T22:30:08.676Z</time>
      </trkpt>
      <trkpt lat="46.72907" lon="-0.0742">
        <ele>153.1</ele>
        <time>2017-11-18T22:30:09.205Z</time>
      </trkpt>
      <trkpt lat="46.72883" lon="-0.07396">
        <ele>152.3</ele>
        <time>2017-11-18T22:30:09.982Z</time>
      </trkpt>
      <trkpt lat="46.72858" lon="-0.07374">
        <ele>151.5</ele>
        <time>2017-11-18T22:30:10.762Z</time>
      </trkpt>
      <trkpt lat="46.72833" lon="-0.07341">
        <ele>151.3</ele>
        <time>2017-11-18T22:30:11.663Z</time>
      </trkpt>
      <trkpt lat="46.72823" lon="-0.07326">
        <ele>151.7</ele>
        <time>2017-11-18T22:30:12.046Z</time>
      </trkpt>
      <trkpt lat="46.72827" lon="-0.07312">
        <ele>151.5</ele>
        <time>2017-11-18T22:30:12.324Z</time>
      </trkpt>
      <trkpt lat="46.72839" lon="-0.07273">
        <ele>150.8</ele>
        <time>2017-11-18T22:30:13.107Z</time>
      </trkpt>
      <trkpt lat="46.72842" lon="-0.07247">
        <ele>150.7</ele>
        <time>2017-11-18T22:30:13.590Z</time>
      </trkpt>
      <trkpt lat="46.72838" lon="-0.07215">
        <ele>151</ele>
        <time>2017-11-18T22:30:14.186Z</time>
      </trkpt>
      <trkpt lat="46.72836" lon="-0.07181">
        <ele>150.9</ele>
        <time>2017-11-18T22:30:14.811Z</time>
      </trkpt>
      <trkpt lat="46.72837" lon="-0.07165">
        <ele>150.8</ele>
        <time>2017-11-18T22:30:15.105Z</time>
      </trkpt>
      <trkpt lat="46.72841" lon="-0.07146">
        <ele>150.2</ele>
        <time>2017-11-18T22:30:15.469Z</time>
      </trkpt>
      <trkpt lat="46.72858" lon="-0.0709">
        <ele>149.3</ele>
        <time>2017-11-18T22:30:16.591Z</time>
      </trkpt>
      <trkpt lat="46.72894" lon="-0.06991">
        <ele>146.9</ele>
        <time>2017-11-18T22:30:18.643Z</time>
      </trkpt>
      <trkpt lat="46.72819" lon="-0.06901">
        <ele>146.7</ele>
        <time>2017-11-18T22:30:21.238Z</time>
      </trkpt>
      <trkpt lat="46.72787" lon="-0.06858">
        <ele>147.7</ele>
        <time>2017-11-18T22:30:22.389Z</time>
      </trkpt>
      <trkpt lat="46.72782" lon="-0.06851">
        <ele>147.8</ele>
        <time>2017-11-18T22:30:22.586Z</time>
      </trkpt>
      <trkpt lat="46.72779" lon="-0.06845">
        <ele>148</ele>
        <time>2017-11-18T22:30:22.722Z</time>
      </trkpt>
      <trkpt lat="46.72783" lon="-0.06766">
        <ele>146.8</ele>
        <time>2017-11-18T22:30:24.173Z</time>
      </trkpt>
      <trkpt lat="46.72787" lon="-0.06749">
        <ele>146.6</ele>
        <time>2017-11-18T22:30:24.502Z</time>
      </trkpt>
      <trkpt lat="46.72796" lon="-0.06739">
        <ele>146.2</ele>
        <time>2017-11-18T22:30:24.804Z</time>
      </trkpt>
      <trkpt lat="46.72808" lon="-0.06731">
        <ele>145.9</ele>
        <time>2017-11-18T22:30:25.157Z</time>
      </trkpt>
      <trkpt lat="46.72858" lon="-0.06688">
        <ele>143.1</ele>
        <time>2017-11-18T22:30:26.708Z</time>
      </trkpt>
      <trkpt lat="46.72867" lon="-0.06672">
        <ele>142.6</ele>
        <time>2017-11-18T22:30:27.087Z</time>
      </trkpt>
      <trkpt lat="46.72866" lon="-0.06626">
        <ele>141.7</ele>
        <time>2017-11-18T22:30:27.930Z</time>
      </trkpt>
      <trkpt lat="46.72857" lon="-0.06555">
        <ele>140.1</ele>
        <time>2017-11-18T22:30:29.252Z</time>
      </trkpt>
      <trkpt lat="46.72854" lon="-0.06525">
        <ele>139.9</ele>
        <time>2017-11-18T22:30:29.807Z</time>
      </trkpt>
      <trkpt lat="46.72855" lon="-0.06491">
        <ele>138.6</ele>
        <time>2017-11-18T22:30:30.430Z</time>
      </trkpt>
      <trkpt lat="46.72872" lon="-0.06449">
        <ele>135.9</ele>
        <time>2017-11-18T22:30:31.323Z</time>
      </trkpt>
      <trkpt lat="46.72871" lon="-0.06431">
        <ele>134.8</ele>
        <time>2017-11-18T22:30:31.654Z</time>
      </trkpt>
      <trkpt lat="46.72859" lon="-0.06395">
        <ele>133.3</ele>
        <time>2017-11-18T22:30:32.387Z</time>
      </trkpt>
      <trkpt lat="46.72857" lon="-0.06376">
        <ele>133.2</ele>
        <time>2017-11-18T22:30:32.739Z</time>
      </trkpt>
      <trkpt lat="46.72861" lon="-0.06334">
        <ele>134</ele>
        <time>2017-11-18T22:30:33.516Z</time>
      </trkpt>
      <trkpt lat="46.72862" lon="-0.06283">
        <ele>136.7</ele>
        <time>2017-11-18T22:30:34.450Z</time>
      </trkpt>
      <trkpt lat="46.7286" lon="-0.0624">
        <ele>138.1</ele>
        <time>2017-11-18T22:30:35.239Z</time>
      </trkpt>
      <trkpt lat="46.72857" lon="-0.0621">
        <ele>138.7</ele>
        <time>2017-11-18T22:30:35.790Z</time>
      </trkpt>
      <trkpt lat="46.72856" lon="-0.062">
        <ele>139</ele>
        <time>2017-11-18T22:30:35.980Z</time>
      </trkpt>
      <trkpt lat="46.72856" lon="-0.06181">
        <ele>139.3</ele>
        <time>2017-11-18T22:30:36.328Z</time>
      </trkpt>
      <trkpt lat="46.72861" lon="-0.0616">
        <ele>139.2</ele>
        <time>2017-11-18T22:30:36.735Z</time>
      </trkpt>
      <trkpt lat="46.72881" lon="-0.06114">
        <ele>138.6</ele>
        <time>2017-11-18T22:30:37.733Z</time>
      </trkpt>
      <trkpt lat="46.72887" lon="-0.06052">
        <ele>139.1</ele>
        <time>2017-11-18T22:30:38.880Z</time>
      </trkpt>
      <trkpt lat="46.72888" lon="-0.05959">
        <ele>137.1</ele>
        <time>2017-11-18T22:30:40.583Z</time>
      </trkpt>
      <trkpt lat="46.72885" lon="-0.05913">
        <ele>134.9</ele>
        <time>2017-11-18T22:30:41.429Z</time>
      </trkpt>
      <trkpt lat="46.7288" lon="-0.0589">
        <ele>133.4</ele>
        <time>2017-11-18T22:30:41.871Z</time>
      </trkpt>
      <trkpt lat="46.72869" lon="-0.05868">
        <ele>131.5</ele>
        <time>2017-11-18T22:30:42.370Z</time>
      </trkpt>
      <trkpt lat="46.72853" lon="-0.05847">
        <ele>130.3</ele>
        <time>2017-11-18T22:30:42.945Z</time>
      </trkpt>
      <trkpt lat="46.72829" lon="-0.05816">
        <ele>129.5</ele>
        <time>2017-11-18T22:30:43.801Z</time>
      </trkpt>
      <trkpt lat="46.72827" lon="-0.05805">
        <ele>129.2</ele>
        <time>2017-11-18T22:30:44.011Z</time>
      </trkpt>
      <trkpt lat="46.72825" lon="-0.05794">
        <ele>129</ele>
        <time>2017-11-18T22:30:44.218Z</time>
      </trkpt>
      <trkpt lat="46.72833" lon="-0.05786">
        <ele>128.3</ele>
        <time>2017-11-18T22:30:44.477Z</time>
      </trkpt>
      <trkpt lat="46.72844" lon="-0.05768">
        <ele>128</ele>
        <time>2017-11-18T22:30:44.919Z</time>
      </trkpt>
      <trkpt lat="46.72858" lon="-0.05737">
        <ele>128</ele>
        <time>2017-11-18T22:30:45.599Z</time>
      </trkpt>
      <trkpt lat="46.72866" lon="-0.05728">
        <ele>128.3</ele>
        <time>2017-11-18T22:30:45.869Z</time>
      </trkpt>
      <trkpt lat="46.72868" lon="-0.05727">
        <ele>128.4</ele>
        <time>2017-11-18T22:30:45.926Z</time>
      </trkpt>
      <trkpt lat="46.72861" lon="-0.05689">
        <ele>129.2</ele>
        <time>2017-11-18T22:30:46.647Z</time>
      </trkpt>
      <trkpt lat="46.72858" lon="-0.05654">
        <ele>129.8</ele>
        <time>2017-11-18T22:30:47.293Z</time>
      </trkpt>
      <trkpt lat="46.72863" lon="-0.05619">
        <ele>129.6</ele>
        <time>2017-11-18T22:30:47.948Z</time>
      </trkpt>
      <trkpt lat="46.72911" lon="-0.05471">
        <ele>130.4</ele>
        <time>2017-11-18T22:30:50.947Z</time>
      </trkpt>
      <trkpt lat="46.72917" lon="-0.05446">
        <ele>130.1</ele>
        <time>2017-11-18T22:30:51.432Z</time>
      </trkpt>
      <trkpt lat="46.72921" lon="-0.05386">
        <ele>129.6</ele>
        <time>2017-11-18T22:30:52.536Z</time>
      </trkpt>
      <trkpt lat="46.72923" lon="-0.05292">
        <ele>130.1</ele>
        <time>2017-11-18T22:30:54.258Z</time>
      </trkpt>
      <trkpt lat="46.72917" lon="-0.05231">
        <ele>129.8</ele>
        <time>2017-11-18T22:30:55.387Z</time>
      </trkpt>
      <trkpt lat="46.72911" lon="-0.05197">
        <ele>131.2</ele>
        <time>2017-11-18T22:30:56.030Z</time>
      </trkpt>
      <trkpt lat="46.72891" lon="-0.05142">
        <ele>130.4</ele>
        <time>2017-11-18T22:30:57.170Z</time>
      </trkpt>
      <trkpt lat="46.72848" lon="-0.05021">
        <ele>130.8</ele>
        <time>2017-11-18T22:30:59.666Z</time>
      </trkpt>
      <trkpt lat="46.72845" lon="-0.05018">
        <ele>130.6</ele>
        <time>2017-11-18T22:30:59.763Z</time>
      </trkpt>
      <trkpt lat="46.72843" lon="-0.05017">
        <ele>130.4</ele>
        <time>2017-11-18T22:30:59.820Z</time>
      </trkpt>
      <trkpt lat="46.72847" lon="-0.05009">
        <ele>131.2</ele>
        <time>2017-11-18T22:31:00.001Z</time>
      </trkpt>
      <trkpt lat="46.72894" lon="-0.04953">
        <ele>135.5</ele>
        <time>2017-11-18T22:31:01.622Z</time>
      </trkpt>
      <trkpt lat="46.72913" lon="-0.0493">
        <ele>135.5</ele>
        <time>2017-11-18T22:31:02.282Z</time>
      </trkpt>
      <trkpt lat="46.72919" lon="-0.04922">
        <ele>135.3</ele>
        <time>2017-11-18T22:31:02.499Z</time>
      </trkpt>
      <trkpt lat="46.72904" lon="-0.04909">
        <ele>135.7</ele>
        <time>2017-11-18T22:31:02.965Z</time>
      </trkpt>
      <trkpt lat="46.7287" lon="-0.04858">
        <ele>139.8</ele>
        <time>2017-11-18T22:31:04.268Z</time>
      </trkpt>
      <trkpt lat="46.72848" lon="-0.04824">
        <ele>141.2</ele>
        <time>2017-11-18T22:31:05.124Z</time>
      </trkpt>
      <trkpt lat="46.72827" lon="-0.04789">
        <ele>142.1</ele>
        <time>2017-11-18T22:31:05.976Z</time>
      </trkpt>
      <trkpt lat="46.72801" lon="-0.04733">
        <ele>143</ele>
        <time>2017-11-18T22:31:07.215Z</time>
      </trkpt>
      <trkpt lat="46.72794" lon="-0.04723">
        <ele>143</ele>
        <time>2017-11-18T22:31:07.477Z</time>
      </trkpt>
      <trkpt lat="46.72766" lon="-0.04698">
        <ele>143.9</ele>
        <time>2017-11-18T22:31:08.354Z</time>
      </trkpt>
      <trkpt lat="46.72739" lon="-0.04667">
        <ele>144</ele>
        <time>2017-11-18T22:31:09.272Z</time>
      </trkpt>
      <trkpt lat="46.72721" lon="-0.0464">
        <ele>145</ele>
        <time>2017-11-18T22:31:09.962Z</time>
      </trkpt>
      <trkpt lat="46.72696" lon="-0.04584">
        <ele>145</ele>
        <time>2017-11-18T22:31:11.186Z</time>
      </trkpt>
      <trkpt lat="46.72681" lon="-0.04565">
        <ele>145</ele>
        <time>2017-11-18T22:31:11.717Z</time>
      </trkpt>
      <trkpt lat="46.72654" lon="-0.04547">
        <ele>145.6</ele>
        <time>2017-11-18T22:31:12.510Z</time>
      </trkpt>
      <trkpt lat="46.7264" lon="-0.04535">
        <ele>146</ele>
        <time>2017-11-18T22:31:12.944Z</time>
      </trkpt>
      <trkpt lat="46.72627" lon="-0.04512">
        <ele>146</ele>
        <time>2017-11-18T22:31:13.490Z</time>
      </trkpt>
      <trkpt lat="46.72613" lon="-0.04485">
        <ele>146</ele>
        <time>2017-11-18T22:31:14.110Z</time>
      </trkpt>
      <trkpt lat="46.72571" lon="-0.04425">
        <ele>146</ele>
        <time>2017-11-18T22:31:15.681Z</time>
      </trkpt>
      <trkpt lat="46.7253" lon="-0.04367">
        <ele>146</ele>
        <time>2017-11-18T22:31:17.207Z</time>
      </trkpt>
      <trkpt lat="46.72513" lon="-0.04346">
        <ele>145.8</ele>
        <time>2017-11-18T22:31:17.802Z</time>
      </trkpt>
      <trkpt lat="46.72501" lon="-0.04325">
        <ele>146</ele>
        <time>2017-11-18T22:31:18.303Z</time>
      </trkpt>
      <trkpt lat="46.72477" lon="-0.04276">
        <ele>145.2</ele>
        <time>2017-11-18T22:31:19.406Z</time>
      </trkpt>
      <trkpt lat="46.72449" lon="-0.04233">
        <ele>145</ele>
        <time>2017-11-18T22:31:20.492Z</time>
      </trkpt>
      <trkpt lat="46.72411" lon="-0.04181">
        <ele>144.9</ele>
        <time>2017-11-18T22:31:21.884Z</time>
      </trkpt>
      <trkpt lat="46.72403" lon="-0.04174">
        <ele>144.9</ele>
        <time>2017-11-18T22:31:22.128Z</time>
      </trkpt>
      <trkpt lat="46.72402" lon="-0.04173">
        <ele>144.9</ele>
        <time>2017-11-18T22:31:22.166Z</time>
      </trkpt>
      <trkpt lat="46.72402" lon="-0.04184">
        <ele>144.7</ele>
        <time>2017-11-18T22:31:22.367Z</time>
      </trkpt>
      <trkpt lat="46.72402" lon="-0.04126">
        <ele>146</ele>
        <time>2017-11-18T22:31:23.429Z</time>
      </trkpt>
      <trkpt lat="46.724" lon="-0.0407">
        <ele>146.5</ele>
        <time>2017-11-18T22:31:24.456Z</time>
      </trkpt>
      <trkpt lat="46.72395" lon="-0.04028">
        <ele>147</ele>
        <time>2017-11-18T22:31:25.237Z</time>
      </trkpt>
      <trkpt lat="46.72386" lon="-0.03978">
        <ele>147.8</ele>
        <time>2017-11-18T22:31:26.184Z</time>
      </trkpt>
      <trkpt lat="46.72369" lon="-0.03915">
        <ele>148</ele>
        <time>2017-11-18T22:31:27.424Z</time>
      </trkpt>
      <trkpt lat="46.72344" lon="-0.03854">
        <ele>148</ele>
        <time>2017-11-18T22:31:28.726Z</time>
      </trkpt>
      <trkpt lat="46.72315" lon="-0.03801">
        <ele>148.7</ele>
        <time>2017-11-18T22:31:29.968Z</time>
      </trkpt>
      <trkpt lat="46.7226" lon="-0.03717">
        <ele>149</ele>
        <time>2017-11-18T22:31:32.096Z</time>
      </trkpt>
      <trkpt lat="46.72204" lon="-0.03643">
        <ele>148</ele>
        <time>2017-11-18T22:31:34.115Z</time>
      </trkpt>
      <trkpt lat="46.72187" lon="-0.03616">
        <ele>148</ele>
        <time>2017-11-18T22:31:34.786Z</time>
      </trkpt>
      <trkpt lat="46.72127" lon="-0.03512">
        <ele>148.4</ele>
        <time>2017-11-18T22:31:37.276Z</time>
      </trkpt>
      <trkpt lat="46.72068" lon="-0.034">
        <ele>149</ele>
        <time>2017-11-18T22:31:39.863Z</time>
      </trkpt>
      <trkpt lat="46.72037" lon="-0.03336">
        <ele>149</ele>
        <time>2017-11-18T22:31:41.298Z</time>
      </trkpt>
      <trkpt lat="46.72031" lon="-0.0332">
        <ele>148.5</ele>
        <time>2017-11-18T22:31:41.632Z</time>
      </trkpt>
      <trkpt lat="46.72" lon="-0.03216">
        <ele>147.8</ele>
        <time>2017-11-18T22:31:43.709Z</time>
      </trkpt>
      <trkpt lat="46.71991" lon="-0.03164">
        <ele>147.4</ele>
        <time>2017-11-18T22:31:44.691Z</time>
      </trkpt>
      <trkpt lat="46.71992" lon="-0.03068">
        <ele>148.3</ele>
        <time>2017-11-18T22:31:46.450Z</time>
      </trkpt>
      <trkpt lat="46.7199" lon="-0.03036">
        <ele>148.4</ele>
        <time>2017-11-18T22:31:47.039Z</time>
      </trkpt>
      <trkpt lat="46.7198" lon="-0.02982">
        <ele>148</ele>
        <time>2017-11-18T22:31:48.064Z</time>
      </trkpt>
      <trkpt lat="46.72001" lon="-0.02944">
        <ele>147.9</ele>
        <time>2017-11-18T22:31:48.958Z</time>
      </trkpt>
      <trkpt lat="46.72021" lon="-0.02904">
        <ele>147</ele>
        <time>2017-11-18T22:31:49.865Z</time>
      </trkpt>
      <trkpt lat="46.72035" lon="-0.02867">
        <ele>146</ele>
        <time>2017-11-18T22:31:50.639Z</time>
      </trkpt>
      <trkpt lat="46.72037" lon="-0.02856">
        <ele>145.5</ele>
        <time>2017-11-18T22:31:50.847Z</time>
      </trkpt>
      <trkpt lat="46.72037" lon="-0.02838">
        <ele>144.8</ele>
        <time>2017-11-18T22:31:51.177Z</time>
      </trkpt>
      <trkpt lat="46.72034" lon="-0.02822">
        <ele>144.7</ele>
        <time>2017-11-18T22:31:51.481Z</time>
      </trkpt>
      <trkpt lat="46.72028" lon="-0.02814">
        <ele>145</ele>
        <time>2017-11-18T22:31:51.698Z</time>
      </trkpt>
      <trkpt lat="46.7202" lon="-0.02802">
        <ele>144.9</ele>
        <time>2017-11-18T22:31:52.005Z</time>
      </trkpt>
      <trkpt lat="46.72013" lon="-0.02793">
        <ele>144.8</ele>
        <time>2017-11-18T22:31:52.253Z</time>
      </trkpt>
      <trkpt lat="46.72008" lon="-0.0278">
        <ele>144.7</ele>
        <time>2017-11-18T22:31:52.526Z</time>
      </trkpt>
      <trkpt lat="46.72006" lon="-0.02771">
        <ele>144.5</ele>
        <time>2017-11-18T22:31:52.700Z</time>
      </trkpt>
      <trkpt lat="46.72005" lon="-0.02765">
        <ele>144.4</ele>
        <time>2017-11-18T22:31:52.812Z</time>
      </trkpt>
      <trkpt lat="46.72" lon="-0.02766">
        <ele>144.6</ele>
        <time>2017-11-18T22:31:52.947Z</time>
      </trkpt>
      <trkpt lat="46.71978" lon="-0.02767">
        <ele>145.4</ele>
        <time>2017-11-18T22:31:53.540Z</time>
      </trkpt>
      <trkpt lat="46.71969" lon="-0.02767">
        <ele>145.6</ele>
        <time>2017-11-18T22:31:53.775Z</time>
      </trkpt>
      <trkpt lat="46.71949" lon="-0.02772">
        <ele>145.8</ele>
        <time>2017-11-18T22:31:54.317Z</time>
      </trkpt>
      <trkpt lat="46.71928" lon="-0.02783">
        <ele>146.7</ele>
        <time>2017-11-18T22:31:54.913Z</time>
      </trkpt>
      <trkpt lat="46.71918" lon="-0.02789">
        <ele>147</ele>
        <time>2017-11-18T22:31:55.202Z</time>
      </trkpt>
      <trkpt lat="46.71908" lon="-0.028">
        <ele>147</ele>
        <time>2017-11-18T22:31:55.537Z</time>
      </trkpt>
      <trkpt lat="46.71856" lon="-0.02853">
        <ele>148.7</ele>
        <time>2017-11-18T22:31:57.240Z</time>
      </trkpt>
      <trkpt lat="46.71849" lon="-0.0286">
        <ele>149</ele>
        <time>2017-11-18T22:31:57.459Z</time>
      </trkpt>
      <trkpt lat="46.71847" lon="-0.02862">
        <ele>149</ele>
        <time>2017-11-18T22:31:57.524Z</time>
      </trkpt>
      <trkpt lat="46.71849" lon="-0.02864">
        <ele>149</ele>
        <time>2017-11-18T22:31:57.589Z</time>
      </trkpt>
      <trkpt lat="46.71859" lon="-0.02874">
        <ele>149</ele>
        <time>2017-11-18T22:31:57.913Z</time>
      </trkpt>
      <trkpt lat="46.71907" lon="-0.02936">
        <ele>149</ele>
        <time>2017-11-18T22:31:59.626Z</time>
      </trkpt>
      <trkpt lat="46.71932" lon="-0.02968">
        <ele>148.9</ele>
        <time>2017-11-18T22:32:00.515Z</time>
      </trkpt>
      <trkpt lat="46.71957" lon="-0.02994">
        <ele>148.6</ele>
        <time>2017-11-18T22:32:01.321Z</time>
      </trkpt>
      <trkpt lat="46.71959" lon="-0.02996">
        <ele>148.5</ele>
        <time>2017-11-18T22:32:01.400Z</time>
      </trkpt>
      <trkpt lat="46.71955" lon="-0.02998">
        <ele>148.6</ele>
        <time>2017-11-18T22:32:01.513Z</time>
      </trkpt>
      <trkpt lat="46.71925" lon="-0.0303">
        <ele>149.1</ele>
        <time>2017-11-18T22:32:02.506Z</time>
      </trkpt>
      <trkpt lat="46.71897" lon="-0.03059">
        <ele>150</ele>
        <time>2017-11-18T22:32:03.424Z</time>
      </trkpt>
      <trkpt lat="46.71874" lon="-0.0309">
        <ele>150</ele>
        <time>2017-11-18T22:32:04.261Z</time>
      </trkpt>
      <trkpt lat="46.71858" lon="-0.03117">
        <ele>150</ele>
        <time>2017-11-18T22:32:04.915Z</time>
      </trkpt>
      <trkpt lat="46.71849" lon="-0.03138">
        <ele>150</ele>
        <time>2017-11-18T22:32:05.369Z</time>
      </trkpt>
      <trkpt lat="46.71803" lon="-0.03261">
        <ele>150</ele>
        <time>2017-11-18T22:32:07.936Z</time>
      </trkpt>
      <trkpt lat="46.71736" lon="-0.03421">
        <ele>148</ele>
        <time>2017-11-18T22:32:11.370Z</time>
      </trkpt>
      <trkpt lat="46.71715" lon="-0.03479">
        <ele>147</ele>
        <time>2017-11-18T22:32:12.572Z</time>
      </trkpt>
      <trkpt lat="46.71683" lon="-0.03616">
        <ele>144.5</ele>
        <time>2017-11-18T22:32:15.223Z</time>
      </trkpt>
      <trkpt lat="46.7167" lon="-0.03674">
        <ele>143.1</ele>
        <time>2017-11-18T22:32:16.341Z</time>
      </trkpt>
      <trkpt lat="46.71665" lon="-0.0371">
        <ele>144</ele>
        <time>2017-11-18T22:32:17.014Z</time>
      </trkpt>
      <trkpt lat="46.71656" lon="-0.03798">
        <ele>145.8</ele>
        <time>2017-11-18T22:32:18.644Z</time>
      </trkpt>
      <trkpt lat="46.71648" lon="-0.03852">
        <ele>147.3</ele>
        <time>2017-11-18T22:32:19.656Z</time>
      </trkpt>
      <trkpt lat="46.71642" lon="-0.03885">
        <ele>147.9</ele>
        <time>2017-11-18T22:32:20.281Z</time>
      </trkpt>
      <trkpt lat="46.71612" lon="-0.04004">
        <ele>149</ele>
        <time>2017-11-18T22:32:22.604Z</time>
      </trkpt>
      <trkpt lat="46.7157" lon="-0.04169">
        <ele>148</ele>
        <time>2017-11-18T22:32:25.828Z</time>
      </trkpt>
      <trkpt lat="46.71553" lon="-0.04233">
        <ele>147</ele>
        <time>2017-11-18T22:32:27.085Z</time>
      </trkpt>
      <trkpt lat="46.71556" lon="-0.04235">
        <ele>147</ele>
        <time>2017-11-18T22:32:27.168Z</time>
      </trkpt>
      <trkpt lat="46.71561" lon="-0.04238">
        <ele>147</ele>
        <time>2017-11-18T22:32:27.318Z</time>
      </trkpt>
      <trkpt lat="46.71564" lon="-0.0424">
        <ele>147</ele>
        <time>2017-11-18T22:32:27.406Z</time>
      </trkpt>
      <trkpt lat="46.71573" lon="-0.04298">
        <ele>147</ele>
        <time>2017-11-18T22:32:28.495Z</time>
      </trkpt>
      <trkpt lat="46.71573" lon="-0.04346">
        <ele>147.4</ele>
        <time>2017-11-18T22:32:29.374Z</time>
      </trkpt>
      <trkpt lat="46.71575" lon="-0.04403">
        <ele>147.1</ele>
        <time>2017-11-18T22:32:30.420Z</time>
      </trkpt>
      <trkpt lat="46.71587" lon="-0.04493">
        <ele>147.7</ele>
        <time>2017-11-18T22:32:32.100Z</time>
      </trkpt>
      <trkpt lat="46.71593" lon="-0.04546">
        <ele>148.2</ele>
        <time>2017-11-18T22:32:33.084Z</time>
      </trkpt>
      <trkpt lat="46.71583" lon="-0.04565">
        <ele>148</ele>
        <time>2017-11-18T22:32:33.523Z</time>
      </trkpt>
      <trkpt lat="46.71557" lon="-0.04618">
        <ele>149</ele>
        <time>2017-11-18T22:32:34.717Z</time>
      </trkpt>
      <trkpt lat="46.71531" lon="-0.04685">
        <ele>149.7</ele>
        <time>2017-11-18T22:32:36.127Z</time>
      </trkpt>
      <trkpt lat="46.7151" lon="-0.0473">
        <ele>150</ele>
        <time>2017-11-18T22:32:37.124Z</time>
      </trkpt>
      <trkpt lat="46.71507" lon="-0.04742">
        <ele>150</ele>
        <time>2017-11-18T22:32:37.358Z</time>
      </trkpt>
      <trkpt lat="46.71501" lon="-0.04775">
        <ele>150.9</ele>
        <time>2017-11-18T22:32:37.983Z</time>
      </trkpt>
      <trkpt lat="46.71487" lon="-0.04816">
        <ele>151.2</ele>
        <time>2017-11-18T22:32:38.822Z</time>
      </trkpt>
      <trkpt lat="46.71471" lon="-0.04853">
        <ele>152</ele>
        <time>2017-11-18T22:32:39.623Z</time>
      </trkpt>
      <trkpt lat="46.71455" lon="-0.04889">
        <ele>152</ele>
        <time>2017-11-18T22:32:40.409Z</time>
      </trkpt>
      <trkpt lat="46.71449" lon="-0.04917">
        <ele>152</ele>
        <time>2017-11-18T22:32:40.946Z</time>
      </trkpt>
      <trkpt lat="46.71444" lon="-0.04974">
        <ele>153</ele>
        <time>2017-11-18T22:32:41.999Z</time>
      </trkpt>
      <trkpt lat="46.71445" lon="-0.05044">
        <ele>153</ele>
        <time>2017-11-18T22:32:43.282Z</time>
      </trkpt>
      <trkpt lat="46.71446" lon="-0.05065">
        <ele>153</ele>
        <time>2017-11-18T22:32:43.660Z</time>
      </trkpt>
      <trkpt lat="46.71447" lon="-0.05079">
        <ele>153</ele>
        <time>2017-11-18T22:32:43.926Z</time>
      </trkpt>
      <trkpt lat="46.71455" lon="-0.05192">
        <ele>153</ele>
        <time>2017-11-18T22:32:46.007Z</time>
      </trkpt>
      <trkpt lat="46.71457" lon="-0.05272">
        <ele>153</ele>
        <time>2017-11-18T22:32:47.474Z</time>
      </trkpt>
      <trkpt lat="46.71461" lon="-0.05316">
        <ele>153</ele>
        <time>2017-11-18T22:32:48.287Z</time>
      </trkpt>
      <trkpt lat="46.71475" lon="-0.0544">
        <ele>152</ele>
        <time>2017-11-18T22:32:50.589Z</time>
      </trkpt>
      <trkpt lat="46.71483" lon="-0.05539">
        <ele>151.2</ele>
        <time>2017-11-18T22:32:52.415Z</time>
      </trkpt>
      <trkpt lat="46.71467" lon="-0.05565">
        <ele>151.1</ele>
        <time>2017-11-18T22:32:53.055Z</time>
      </trkpt>
      <trkpt lat="46.71458" lon="-0.05572">
        <ele>151.2</ele>
        <time>2017-11-18T22:32:53.328Z</time>
      </trkpt>
      <trkpt lat="46.71448" lon="-0.05576">
        <ele>151.2</ele>
        <time>2017-11-18T22:32:53.605Z</time>
      </trkpt>
      <trkpt lat="46.71441" lon="-0.05578">
        <ele>151.3</ele>
        <time>2017-11-18T22:32:53.796Z</time>
      </trkpt>
      <trkpt lat="46.71442" lon="-0.05583">
        <ele>151.1</ele>
        <time>2017-11-18T22:32:53.891Z</time>
      </trkpt>
      <trkpt lat="46.71443" lon="-0.05596">
        <ele>150.6</ele>
        <time>2017-11-18T22:32:54.131Z</time>
      </trkpt>
      <trkpt lat="46.71454" lon="-0.05632">
        <ele>149.7</ele>
        <time>2017-11-18T22:32:54.853Z</time>
      </trkpt>
      <trkpt lat="46.71458" lon="-0.05645">
        <ele>149.3</ele>
        <time>2017-11-18T22:32:55.114Z</time>
      </trkpt>
      <trkpt lat="46.71457" lon="-0.05656">
        <ele>148.9</ele>
        <time>2017-11-18T22:32:55.317Z</time>
      </trkpt>
      <trkpt lat="46.7144" lon="-0.05685">
        <ele>148.5</ele>
        <time>2017-11-18T22:32:56.016Z</time>
      </trkpt>
      <trkpt lat="46.71434" lon="-0.05692">
        <ele>148.5</ele>
        <time>2017-11-18T22:32:56.221Z</time>
      </trkpt>
      <trkpt lat="46.71429" lon="-0.05694">
        <ele>148.6</ele>
        <time>2017-11-18T22:32:56.360Z</time>
      </trkpt>
      <trkpt lat="46.71425" lon="-0.05695">
        <ele>148.7</ele>
        <time>2017-11-18T22:32:56.468Z</time>
      </trkpt>
      <trkpt lat="46.71424" lon="-0.05701">
        <ele>148.5</ele>
        <time>2017-11-18T22:32:56.581Z</time>
      </trkpt>
      <trkpt lat="46.71419" lon="-0.05734">
        <ele>147.5</ele>
        <time>2017-11-18T22:32:57.200Z</time>
      </trkpt>
      <trkpt lat="46.71411" lon="-0.05798">
        <ele>145.5</ele>
        <time>2017-11-18T22:32:58.392Z</time>
      </trkpt>
      <trkpt lat="46.71423" lon="-0.05808">
        <ele>144.9</ele>
        <time>2017-11-18T22:32:58.761Z</time>
      </trkpt>
      <trkpt lat="46.71431" lon="-0.05809">
        <ele>144.8</ele>
        <time>2017-11-18T22:32:58.976Z</time>
      </trkpt>
      <trkpt lat="46.71429" lon="-0.05814">
        <ele>144.6</ele>
        <time>2017-11-18T22:32:59.082Z</time>
      </trkpt>
      <trkpt lat="46.71428" lon="-0.05819">
        <ele>144.3</ele>
        <time>2017-11-18T22:32:59.177Z</time>
      </trkpt>
      <trkpt lat="46.71433" lon="-0.05838">
        <ele>143.1</ele>
        <time>2017-11-18T22:32:59.550Z</time>
      </trkpt>
      <trkpt lat="46.71434" lon="-0.05852">
        <ele>142.3</ele>
        <time>2017-11-18T22:32:59.808Z</time>
      </trkpt>
      <trkpt lat="46.71432" lon="-0.05867">
        <ele>141.3</ele>
        <time>2017-11-18T22:33:00.088Z</time>
      </trkpt>
      <trkpt lat="46.71427" lon="-0.05881">
        <ele>140.1</ele>
        <time>2017-11-18T22:33:00.377Z</time>
      </trkpt>
      <trkpt lat="46.71425" lon="-0.05895">
        <ele>138.8</ele>
        <time>2017-11-18T22:33:00.639Z</time>
      </trkpt>
      <trkpt lat="46.71434" lon="-0.05924">
        <ele>135.7</ele>
        <time>2017-11-18T22:33:01.222Z</time>
      </trkpt>
      <trkpt lat="46.7146" lon="-0.05987">
        <ele>133.9</ele>
        <time>2017-11-18T22:33:02.569Z</time>
      </trkpt>
      <trkpt lat="46.71472" lon="-0.06015">
        <ele>136.1</ele>
        <time>2017-11-18T22:33:03.174Z</time>
      </trkpt>
      <trkpt lat="46.71479" lon="-0.06038">
        <ele>138.9</ele>
        <time>2017-11-18T22:33:03.635Z</time>
      </trkpt>
      <trkpt lat="46.71468" lon="-0.06052">
        <ele>139.2</ele>
        <time>2017-11-18T22:33:04.025Z</time>
      </trkpt>
      <trkpt lat="46.71451" lon="-0.06077">
        <ele>139.9</ele>
        <time>2017-11-18T22:33:04.684Z</time>
      </trkpt>
      <trkpt lat="46.71442" lon="-0.0609">
        <ele>140.2</ele>
        <time>2017-11-18T22:33:05.008Z</time>
      </trkpt>
      <trkpt lat="46.7144" lon="-0.06095">
        <ele>140.4</ele>
        <time>2017-11-18T22:33:05.114Z</time>
      </trkpt>
      <trkpt lat="46.71449" lon="-0.06106">
        <ele>142</ele>
        <time>2017-11-18T22:33:05.428Z</time>
      </trkpt>
      <trkpt lat="46.71462" lon="-0.06117">
        <ele>143.7</ele>
        <time>2017-11-18T22:33:05.830Z</time>
      </trkpt>
      <trkpt lat="46.71473" lon="-0.06121">
        <ele>144.8</ele>
        <time>2017-11-18T22:33:06.133Z</time>
      </trkpt>
      <trkpt lat="46.7149" lon="-0.06124">
        <ele>145.9</ele>
        <time>2017-11-18T22:33:06.591Z</time>
      </trkpt>
      <trkpt lat="46.71499" lon="-0.06129">
        <ele>146.6</ele>
        <time>2017-11-18T22:33:06.848Z</time>
      </trkpt>
      <trkpt lat="46.7151" lon="-0.06145">
        <ele>147.6</ele>
        <time>2017-11-18T22:33:07.263Z</time>
      </trkpt>
      <trkpt lat="46.71524" lon="-0.06168">
        <ele>148.9</ele>
        <time>2017-11-18T22:33:07.826Z</time>
      </trkpt>
      <trkpt lat="46.71539" lon="-0.06199">
        <ele>150.1</ele>
        <time>2017-11-18T22:33:08.526Z</time>
      </trkpt>
      <trkpt lat="46.71546" lon="-0.06213">
        <ele>150.4</ele>
        <time>2017-11-18T22:33:08.839Z</time>
      </trkpt>
      <trkpt lat="46.71584" lon="-0.06301">
        <ele>152.8</ele>
        <time>2017-11-18T22:33:10.735Z</time>
      </trkpt>
      <trkpt lat="46.7159" lon="-0.06315">
        <ele>153</ele>
        <time>2017-11-18T22:33:11.047Z</time>
      </trkpt>
      <trkpt lat="46.71634" lon="-0.0642">
        <ele>154</ele>
        <time>2017-11-18T22:33:13.301Z</time>
      </trkpt>
      <trkpt lat="46.71677" lon="-0.06542">
        <ele>155.4</ele>
        <time>2017-11-18T22:33:15.814Z</time>
      </trkpt>
      <trkpt lat="46.71704" lon="-0.06613">
        <ele>156</ele>
        <time>2017-11-18T22:33:17.301Z</time>
      </trkpt>
      <trkpt lat="46.71712" lon="-0.06629">
        <ele>156</ele>
        <time>2017-11-18T22:33:17.664Z</time>
      </trkpt>
      <trkpt lat="46.71755" lon="-0.0671">
        <ele>156</ele>
        <time>2017-11-18T22:33:19.541Z</time>
      </trkpt>
      <trkpt lat="46.71785" lon="-0.0678">
        <ele>155</ele>
        <time>2017-11-18T22:33:21.053Z</time>
      </trkpt>
      <trkpt lat="46.71837" lon="-0.06922">
        <ele>153.8</ele>
        <time>2017-11-18T22:33:24.002Z</time>
      </trkpt>
      <trkpt lat="46.71844" lon="-0.06942">
        <ele>153.4</ele>
        <time>2017-11-18T22:33:24.413Z</time>
      </trkpt>
      <trkpt lat="46.7186" lon="-0.06963">
        <ele>153.3</ele>
        <time>2017-11-18T22:33:24.988Z</time>
      </trkpt>
      <trkpt lat="46.71878" lon="-0.06995">
        <ele>153.6</ele>
        <time>2017-11-18T22:33:25.746Z</time>
      </trkpt>
      <trkpt lat="46.71893" lon="-0.07026">
        <ele>154.1</ele>
        <time>2017-11-18T22:33:26.441Z</time>
      </trkpt>
      <trkpt lat="46.71904" lon="-0.07053">
        <ele>154.5</ele>
        <time>2017-11-18T22:33:27.016Z</time>
      </trkpt>
      <trkpt lat="46.71923" lon="-0.07076">
        <ele>154.4</ele>
        <time>2017-11-18T22:33:27.676Z</time>
      </trkpt>
      <trkpt lat="46.71951" lon="-0.07114">
        <ele>155.2</ele>
        <time>2017-11-18T22:33:28.698Z</time>
      </trkpt>
      <trkpt lat="46.71977" lon="-0.07171">
        <ele>155.2</ele>
        <time>2017-11-18T22:33:29.952Z</time>
      </trkpt>
      <trkpt lat="46.71999" lon="-0.0722">
        <ele>155</ele>
        <time>2017-11-18T22:33:31.025Z</time>
      </trkpt>
      <trkpt lat="46.72005" lon="-0.07229">
        <ele>155.2</ele>
        <time>2017-11-18T22:33:31.255Z</time>
      </trkpt>
      <trkpt lat="46.72008" lon="-0.07232">
        <ele>155.3</ele>
        <time>2017-11-18T22:33:31.352Z</time>
      </trkpt>
      <trkpt lat="46.71981" lon="-0.07238">
        <ele>154.3</ele>
        <time>2017-11-18T22:33:32.082Z</time>
      </trkpt>
      <trkpt lat="46.7198" lon="-0.07243">
        <ele>154.3</ele>
        <time>2017-11-18T22:33:32.174Z</time>
      </trkpt>
      <trkpt lat="46.71976" lon="-0.0726">
        <ele>154.1</ele>
        <time>2017-11-18T22:33:32.507Z</time>
      </trkpt>
      <trkpt lat="46.71973" lon="-0.07283">
        <ele>153.8</ele>
        <time>2017-11-18T22:33:32.936Z</time>
      </trkpt>
      <trkpt lat="46.71969" lon="-0.07362">
        <ele>151.9</ele>
        <time>2017-11-18T22:33:34.387Z</time>
      </trkpt>
      <trkpt lat="46.71962" lon="-0.07395">
        <ele>151.7</ele>
        <time>2017-11-18T22:33:35.020Z</time>
      </trkpt>
      <trkpt lat="46.71952" lon="-0.07419">
        <ele>152</ele>
        <time>2017-11-18T22:33:35.534Z</time>
      </trkpt>
      <trkpt lat="46.71931" lon="-0.07463">
        <ele>152.7</ele>
        <time>2017-11-18T22:33:36.516Z</time>
      </trkpt>
      <trkpt lat="46.71916" lon="-0.07506">
        <ele>153.2</ele>
        <time>2017-11-18T22:33:37.400Z</time>
      </trkpt>
      <trkpt lat="46.71896" lon="-0.07576">
        <ele>154</ele>
        <time>2017-11-18T22:33:38.793Z</time>
      </trkpt>
      <trkpt lat="46.71895" lon="-0.07579">
        <ele>154</ele>
        <time>2017-11-18T22:33:38.850Z</time>
      </trkpt>
      <trkpt lat="46.71892" lon="-0.07594">
        <ele>154</ele>
        <time>2017-11-18T22:33:39.136Z</time>
      </trkpt>
      <trkpt lat="46.71879" lon="-0.07678">
        <ele>154.8</ele>
        <time>2017-11-18T22:33:40.710Z</time>
      </trkpt>
      <trkpt lat="46.71876" lon="-0.07697">
        <ele>155</ele>
        <time>2017-11-18T22:33:41.070Z</time>
      </trkpt>
      <trkpt lat="46.71873" lon="-0.07722">
        <ele>155.4</ele>
        <time>2017-11-18T22:33:41.535Z</time>
      </trkpt>
      <trkpt lat="46.71879" lon="-0.0774">
        <ele>155.9</ele>
        <time>2017-11-18T22:33:41.902Z</time>
      </trkpt>
      <trkpt lat="46.71934" lon="-0.0787">
        <ele>157</ele>
        <time>2017-11-18T22:33:44.700Z</time>
      </trkpt>
      <trkpt lat="46.7201" lon="-0.08053">
        <ele>158</ele>
        <time>2017-11-18T22:33:48.619Z</time>
      </trkpt>
      <trkpt lat="46.72062" lon="-0.08175">
        <ele>158</ele>
        <time>2017-11-18T22:33:51.250Z</time>
      </trkpt>
      <trkpt lat="46.72075" lon="-0.08207">
        <ele>158.5</ele>
        <time>2017-11-18T22:33:51.931Z</time>
      </trkpt>
      <trkpt lat="46.72044" lon="-0.08235">
        <ele>159</ele>
        <time>2017-11-18T22:33:52.905Z</time>
      </trkpt>
      <trkpt lat="46.72012" lon="-0.08264">
        <ele>159.8</ele>
        <time>2017-11-18T22:33:53.912Z</time>
      </trkpt>
      <trkpt lat="46.71993" lon="-0.0828">
        <ele>160.1</ele>
        <time>2017-11-18T22:33:54.498Z</time>
      </trkpt>
      <trkpt lat="46.71951" lon="-0.08302">
        <ele>161</ele>
        <time>2017-11-18T22:33:55.690Z</time>
      </trkpt>
      <trkpt lat="46.71926" lon="-0.08317">
        <ele>161</ele>
        <time>2017-11-18T22:33:56.412Z</time>
      </trkpt>
      <trkpt lat="46.71867" lon="-0.08355">
        <ele>161</ele>
        <time>2017-11-18T22:33:58.135Z</time>
      </trkpt>
      <trkpt lat="46.71859" lon="-0.0836">
        <ele>161</ele>
        <time>2017-11-18T22:33:58.364Z</time>
      </trkpt>
      <trkpt lat="46.71852" lon="-0.08364">
        <ele>161</ele>
        <time>2017-11-18T22:33:58.569Z</time>
      </trkpt>
      <trkpt lat="46.71851" lon="-0.08354">
        <ele>161</ele>
        <time>2017-11-18T22:33:58.754Z</time>
      </trkpt>
      <trkpt lat="46.71855" lon="-0.08409">
        <ele>161</ele>
        <time>2017-11-18T22:33:59.767Z</time>
      </trkpt>
      <trkpt lat="46.71854" lon="-0.0861">
        <ele>162.7</ele>
        <time>2017-11-18T22:34:03.449Z</time>
      </trkpt>
      <trkpt lat="46.71854" lon="-0.0874">
        <ele>163</ele>
        <time>2017-11-18T22:34:05.830Z</time>
      </trkpt>
      <trkpt lat="46.71856" lon="-0.08768">
        <ele>163</ele>
        <time>2017-11-18T22:34:06.346Z</time>
      </trkpt>
      <trkpt lat="46.71856" lon="-0.08796">
        <ele>163</ele>
        <time>2017-11-18T22:34:06.859Z</time>
      </trkpt>
      <trkpt lat="46.71853" lon="-0.08845">
        <ele>163</ele>
        <time>2017-11-18T22:34:07.760Z</time>
      </trkpt>
      <trkpt lat="46.71846" lon="-0.08907">
        <ele>163</ele>
        <time>2017-11-18T22:34:08.911Z</time>
      </trkpt>
      <trkpt lat="46.71841" lon="-0.08928">
        <ele>163</ele>
        <time>2017-11-18T22:34:09.318Z</time>
      </trkpt>
      <trkpt lat="46.71797" lon="-0.09106">
        <ele>163.3</ele>
        <time>2017-11-18T22:34:12.784Z</time>
      </trkpt>
      <trkpt lat="46.71786" lon="-0.09163">
        <ele>163.3</ele>
        <time>2017-11-18T22:34:13.869Z</time>
      </trkpt>
      <trkpt lat="46.7178" lon="-0.09211">
        <ele>163.1</ele>
        <time>2017-11-18T22:34:14.763Z</time>
      </trkpt>
      <trkpt lat="46.71771" lon="-0.09314">
        <ele>163</ele>
        <time>2017-11-18T22:34:16.665Z</time>
      </trkpt>
      <trkpt lat="46.71744" lon="-0.09405">
        <ele>163</ele>
        <time>2017-11-18T22:34:18.481Z</time>
      </trkpt>
      <trkpt lat="46.71731" lon="-0.09437">
        <ele>163</ele>
        <time>2017-11-18T22:34:19.162Z</time>
      </trkpt>
      <trkpt lat="46.7171" lon="-0.09476">
        <ele>163</ele>
        <time>2017-11-18T22:34:20.070Z</time>
      </trkpt>
      <trkpt lat="46.71673" lon="-0.09554">
        <ele>162.8</ele>
        <time>2017-11-18T22:34:21.808Z</time>
      </trkpt>
      <trkpt lat="46.71653" lon="-0.09608">
        <ele>162.5</ele>
        <time>2017-11-18T22:34:22.932Z</time>
      </trkpt>
      <trkpt lat="46.71645" lon="-0.09633">
        <ele>162.2</ele>
        <time>2017-11-18T22:34:23.437Z</time>
      </trkpt>
      <trkpt lat="46.71643" lon="-0.09652">
        <ele>162</ele>
        <time>2017-11-18T22:34:23.789Z</time>
      </trkpt>
      <trkpt lat="46.71626" lon="-0.09743">
        <ele>161.6</ele>
        <time>2017-11-18T22:34:25.517Z</time>
      </trkpt>
      <trkpt lat="46.71618" lon="-0.09785">
        <ele>161.8</ele>
        <time>2017-11-18T22:34:26.316Z</time>
      </trkpt>
      <trkpt lat="46.71605" lon="-0.0983">
        <ele>161.3</ele>
        <time>2017-11-18T22:34:27.211Z</time>
      </trkpt>
      <trkpt lat="46.71595" lon="-0.09874">
        <ele>161.3</ele>
        <time>2017-11-18T22:34:28.060Z</time>
      </trkpt>
      <trkpt lat="46.71591" lon="-0.09933">
        <ele>161</ele>
        <time>2017-11-18T22:34:29.146Z</time>
      </trkpt>
      <trkpt lat="46.71582" lon="-0.1007">
        <ele>161</ele>
        <time>2017-11-18T22:34:31.667Z</time>
      </trkpt>
      <trkpt lat="46.71579" lon="-0.10162">
        <ele>160</ele>
        <time>2017-11-18T22:34:33.354Z</time>
      </trkpt>
      <trkpt lat="46.71573" lon="-0.10186">
        <ele>160</ele>
        <time>2017-11-18T22:34:33.822Z</time>
      </trkpt>
      <trkpt lat="46.71558" lon="-0.10219">
        <ele>160</ele>
        <time>2017-11-18T22:34:34.547Z</time>
      </trkpt>
      <trkpt lat="46.7153" lon="-0.10278">
        <ele>160</ele>
        <time>2017-11-18T22:34:35.861Z</time>
      </trkpt>
      <trkpt lat="46.71511" lon="-0.10322">
        <ele>160</ele>
        <time>2017-11-18T22:34:36.814Z</time>
      </trkpt>
      <trkpt lat="46.71508" lon="-0.10337">
        <ele>160</ele>
        <time>2017-11-18T22:34:37.100Z</time>
      </trkpt>
      <trkpt lat="46.71504" lon="-0.10392">
        <ele>160</ele>
        <time>2017-11-18T22:34:38.113Z</time>
      </trkpt>
      <trkpt lat="46.71507" lon="-0.10454">
        <ele>160</ele>
        <time>2017-11-18T22:34:39.252Z</time>
      </trkpt>
      <trkpt lat="46.71505" lon="-0.10489">
        <ele>160.6</ele>
        <time>2017-11-18T22:34:39.895Z</time>
      </trkpt>
      <trkpt lat="46.71501" lon="-0.10517">
        <ele>161</ele>
        <time>2017-11-18T22:34:40.419Z</time>
      </trkpt>
      <trkpt lat="46.7148" lon="-0.10596">
        <ele>161</ele>
        <time>2017-11-18T22:34:41.971Z</time>
      </trkpt>
      <trkpt lat="46.71437" lon="-0.1076">
        <ele>161.5</ele>
        <time>2017-11-18T22:34:45.188Z</time>
      </trkpt>
      <trkpt lat="46.71411" lon="-0.10869">
        <ele>162</ele>
        <time>2017-11-18T22:34:47.302Z</time>
      </trkpt>
      <trkpt lat="46.71411" lon="-0.10891">
        <ele>162</ele>
        <time>2017-11-18T22:34:47.705Z</time>
      </trkpt>
      <trkpt lat="46.71414" lon="-0.10916">
        <ele>162</ele>
        <time>2017-11-18T22:34:48.170Z</time>
      </trkpt>
      <trkpt lat="46.71437" lon="-0.10995">
        <ele>162.8</ele>
        <time>2017-11-18T22:34:49.742Z</time>
      </trkpt>
      <trkpt lat="46.71476" lon="-0.11096">
        <ele>163</ele>
        <time>2017-11-18T22:34:51.866Z</time>
      </trkpt>
      <trkpt lat="46.71544" lon="-0.11257">
        <ele>164</ele>
        <time>2017-11-18T22:34:55.330Z</time>
      </trkpt>
      <trkpt lat="46.71551" lon="-0.11275">
        <ele>164</ele>
        <time>2017-11-18T22:34:55.709Z</time>
      </trkpt>
      <trkpt lat="46.71555" lon="-0.11294">
        <ele>164.6</ele>
        <time>2017-11-18T22:34:56.073Z</time>
      </trkpt>
      <trkpt lat="46.71569" lon="-0.11422">
        <ele>165</ele>
        <time>2017-11-18T22:34:58.447Z</time>
      </trkpt>
      <trkpt lat="46.71579" lon="-0.11497">
        <ele>165</ele>
        <time>2017-11-18T22:34:59.847Z</time>
      </trkpt>
      <trkpt lat="46.71585" lon="-0.11525">
        <ele>165</ele>
        <time>2017-11-18T22:35:00.384Z</time>
      </trkpt>
      <trkpt lat="46.7159" lon="-0.1155">
        <ele>165</ele>
        <time>2017-11-18T22:35:00.861Z</time>
      </trkpt>
      <trkpt lat="46.71601" lon="-0.11594">
        <ele>165</ele>
        <time>2017-11-18T22:35:01.719Z</time>
      </trkpt>
      <trkpt lat="46.71601" lon="-0.11616">
        <ele>165</ele>
        <time>2017-11-18T22:35:02.122Z</time>
      </trkpt>
      <trkpt lat="46.716" lon="-0.11656">
        <ele>165</ele>
        <time>2017-11-18T22:35:02.855Z</time>
      </trkpt>
      <trkpt lat="46.71599" lon="-0.11674">
        <ele>165</ele>
        <time>2017-11-18T22:35:03.194Z</time>
      </trkpt>
      <trkpt lat="46.71597" lon="-0.11703">
        <ele>165</ele>
        <time>2017-11-18T22:35:03.719Z</time>
      </trkpt>
      <trkpt lat="46.71594" lon="-0.118">
        <ele>165</ele>
        <time>2017-11-18T22:35:05.498Z</time>
      </trkpt>
      <trkpt lat="46.71592" lon="-0.11826">
        <ele>165</ele>
        <time>2017-11-18T22:35:05.977Z</time>
      </trkpt>
      <trkpt lat="46.71589" lon="-0.11846">
        <ele>165</ele>
        <time>2017-11-18T22:35:06.352Z</time>
      </trkpt>
      <trkpt lat="46.71578" lon="-0.11893">
        <ele>164.9</ele>
        <time>2017-11-18T22:35:07.262Z</time>
      </trkpt>
      <trkpt lat="46.71549" lon="-0.11976">
        <ele>164.2</ele>
        <time>2017-11-18T22:35:08.969Z</time>
      </trkpt>
      <trkpt lat="46.71541" lon="-0.12004">
        <ele>164.4</ele>
        <time>2017-11-18T22:35:09.525Z</time>
      </trkpt>
      <trkpt lat="46.71537" lon="-0.12027">
        <ele>164</ele>
        <time>2017-11-18T22:35:09.960Z</time>
      </trkpt>
      <trkpt lat="46.71532" lon="-0.12126">
        <ele>163.9</ele>
        <time>2017-11-18T22:35:11.779Z</time>
      </trkpt>
      <trkpt lat="46.71529" lon="-0.12185">
        <ele>163.3</ele>
        <time>2017-11-18T22:35:12.863Z</time>
      </trkpt>
      <trkpt lat="46.71527" lon="-0.12202">
        <ele>163</ele>
        <time>2017-11-18T22:35:13.179Z</time>
      </trkpt>
      <trkpt lat="46.71496" lon="-0.12298">
        <ele>162</ele>
        <time>2017-11-18T22:35:15.123Z</time>
      </trkpt>
      <trkpt lat="46.71487" lon="-0.12337">
        <ele>161.4</ele>
        <time>2017-11-18T22:35:15.877Z</time>
      </trkpt>
      <trkpt lat="46.71461" lon="-0.1247">
        <ele>158.5</ele>
        <time>2017-11-18T22:35:18.411Z</time>
      </trkpt>
      <trkpt lat="46.71455" lon="-0.12507">
        <ele>156.4</ele>
        <time>2017-11-18T22:35:19.108Z</time>
      </trkpt>
      <trkpt lat="46.7145" lon="-0.12526">
        <ele>155.9</ele>
        <time>2017-11-18T22:35:19.481Z</time>
      </trkpt>
      <trkpt lat="46.7144" lon="-0.1255">
        <ele>155.4</ele>
        <time>2017-11-18T22:35:19.995Z</time>
      </trkpt>
      <trkpt lat="46.71428" lon="-0.12575">
        <ele>154.9</ele>
        <time>2017-11-18T22:35:20.554Z</time>
      </trkpt>
      <trkpt lat="46.71425" lon="-0.12588">
        <ele>154.5</ele>
        <time>2017-11-18T22:35:20.805Z</time>
      </trkpt>
      <trkpt lat="46.71421" lon="-0.12634">
        <ele>153.1</ele>
        <time>2017-11-18T22:35:21.654Z</time>
      </trkpt>
      <trkpt lat="46.71415" lon="-0.12734">
        <ele>150.2</ele>
        <time>2017-11-18T22:35:23.493Z</time>
      </trkpt>
      <trkpt lat="46.71415" lon="-0.12756">
        <ele>148.9</ele>
        <time>2017-11-18T22:35:23.896Z</time>
      </trkpt>
      <trkpt lat="46.71421" lon="-0.1279">
        <ele>147.4</ele>
        <time>2017-11-18T22:35:24.539Z</time>
      </trkpt>
      <trkpt lat="46.71436" lon="-0.1285">
        <ele>144.5</ele>
        <time>2017-11-18T22:35:25.709Z</time>
      </trkpt>
      <trkpt lat="46.71455" lon="-0.12936">
        <ele>141.2</ele>
        <time>2017-11-18T22:35:27.364Z</time>
      </trkpt>
      <trkpt lat="46.71465" lon="-0.12972">
        <ele>139.8</ele>
        <time>2017-11-18T22:35:28.076Z</time>
      </trkpt>
      <trkpt lat="46.71466" lon="-0.12973">
        <ele>139.7</ele>
        <time>2017-11-18T22:35:28.098Z</time>
      </trkpt>
      <trkpt lat="46.7148" lon="-0.12997">
        <ele>139.6</ele>
        <time>2017-11-18T22:35:28.685Z</time>
      </trkpt>
      <trkpt lat="46.71502" lon="-0.13027">
        <ele>140.1</ele>
        <time>2017-11-18T22:35:29.491Z</time>
      </trkpt>
      <trkpt lat="46.71518" lon="-0.13048">
        <ele>140.6</ele>
        <time>2017-11-18T22:35:30.065Z</time>
      </trkpt>
      <trkpt lat="46.71522" lon="-0.13053">
        <ele>140.8</ele>
        <time>2017-11-18T22:35:30.213Z</time>
      </trkpt>
      <trkpt lat="46.71533" lon="-0.13067">
        <ele>140.6</ele>
        <time>2017-11-18T22:35:30.610Z</time>
      </trkpt>
      <trkpt lat="46.71539" lon="-0.13074">
        <ele>140.3</ele>
        <time>2017-11-18T22:35:30.788Z</time>
      </trkpt>
      <trkpt lat="46.71546" lon="-0.13092">
        <ele>139.5</ele>
        <time>2017-11-18T22:35:31.184Z</time>
      </trkpt>
      <trkpt lat="46.71546" lon="-0.13092">
        <ele>139.5</ele>
        <time>2017-11-18T22:35:31.192Z</time>
      </trkpt>
      <trkpt lat="46.71551" lon="-0.13119">
        <ele>137.9</ele>
        <time>2017-11-18T22:35:31.704Z</time>
      </trkpt>
      <trkpt lat="46.71554" lon="-0.13153">
        <ele>136.5</ele>
        <time>2017-11-18T22:35:32.332Z</time>
      </trkpt>
      <trkpt lat="46.71553" lon="-0.13219">
        <ele>135.2</ele>
        <time>2017-11-18T22:35:33.541Z</time>
      </trkpt>
      <trkpt lat="46.71547" lon="-0.13262">
        <ele>132.6</ele>
        <time>2017-11-18T22:35:34.345Z</time>
      </trkpt>
      <trkpt lat="46.71543" lon="-0.13279">
        <ele>131.5</ele>
        <time>2017-11-18T22:35:34.674Z</time>
      </trkpt>
      <trkpt lat="46.71544" lon="-0.1329">
        <ele>131.1</ele>
        <time>2017-11-18T22:35:34.875Z</time>
      </trkpt>
      <trkpt lat="46.71544" lon="-0.13291">
        <ele>131.1</ele>
        <time>2017-11-18T22:35:34.895Z</time>
      </trkpt>
      <trkpt lat="46.71552" lon="-0.13306">
        <ele>130.8</ele>
        <time>2017-11-18T22:35:35.243Z</time>
      </trkpt>
      <trkpt lat="46.71552" lon="-0.13314">
        <ele>130</ele>
        <time>2017-11-18T22:35:35.390Z</time>
      </trkpt>
      <trkpt lat="46.71551" lon="-0.13317">
        <ele>129.7</ele>
        <time>2017-11-18T22:35:35.451Z</time>
      </trkpt>
      <trkpt lat="46.71536" lon="-0.13381">
        <ele>124.8</ele>
        <time>2017-11-18T22:35:36.690Z</time>
      </trkpt>
      <trkpt lat="46.71528" lon="-0.13401">
        <ele>121.7</ele>
        <time>2017-11-18T22:35:37.114Z</time>
      </trkpt>
      <trkpt lat="46.71517" lon="-0.13423">
        <ele>119.3</ele>
        <time>2017-11-18T22:35:37.613Z</time>
      </trkpt>
      <trkpt lat="46.71502" lon="-0.13449">
        <ele>116.7</ele>
        <time>2017-11-18T22:35:38.235Z</time>
      </trkpt>
      <trkpt lat="46.71496" lon="-0.13457">
        <ele>116.1</ele>
        <time>2017-11-18T22:35:38.447Z</time>
      </trkpt>
      <trkpt lat="46.71486" lon="-0.13469">
        <ele>115.2</ele>
        <time>2017-11-18T22:35:38.798Z</time>
      </trkpt>
      <trkpt lat="46.7148" lon="-0.13477">
        <ele>115</ele>
        <time>2017-11-18T22:35:39.015Z</time>
      </trkpt>
      <trkpt lat="46.7147" lon="-0.13498">
        <ele>115</ele>
        <time>2017-11-18T22:35:39.483Z</time>
      </trkpt>
      <trkpt lat="46.71468" lon="-0.13507">
        <ele>115.3</ele>
        <time>2017-11-18T22:35:39.656Z</time>
      </trkpt>
      <trkpt lat="46.7147" lon="-0.13514">
        <ele>115.5</ele>
        <time>2017-11-18T22:35:39.795Z</time>
      </trkpt>
      <trkpt lat="46.71473" lon="-0.13519">
        <ele>115.7</ele>
        <time>2017-11-18T22:35:39.917Z</time>
      </trkpt>
      <trkpt lat="46.71519" lon="-0.13548">
        <ele>116.7</ele>
        <time>2017-11-18T22:35:41.256Z</time>
      </trkpt>
      <trkpt lat="46.71525" lon="-0.13555">
        <ele>117.1</ele>
        <time>2017-11-18T22:35:41.461Z</time>
      </trkpt>
      <trkpt lat="46.71527" lon="-0.13562">
        <ele>117.3</ele>
        <time>2017-11-18T22:35:41.600Z</time>
      </trkpt>
      <trkpt lat="46.71528" lon="-0.1357">
        <ele>117.5</ele>
        <time>2017-11-18T22:35:41.749Z</time>
      </trkpt>
      <trkpt lat="46.71526" lon="-0.13581">
        <ele>118</ele>
        <time>2017-11-18T22:35:41.957Z</time>
      </trkpt>
      <trkpt lat="46.71516" lon="-0.13603">
        <ele>120</ele>
        <time>2017-11-18T22:35:42.441Z</time>
      </trkpt>
      <trkpt lat="46.71493" lon="-0.13641">
        <ele>122.3</ele>
        <time>2017-11-18T22:35:43.370Z</time>
      </trkpt>
      <trkpt lat="46.71459" lon="-0.1369">
        <ele>124.8</ele>
        <time>2017-11-18T22:35:44.647Z</time>
      </trkpt>
      <trkpt lat="46.71437" lon="-0.1373">
        <ele>124.8</ele>
        <time>2017-11-18T22:35:45.586Z</time>
      </trkpt>
      <trkpt lat="46.7141" lon="-0.13775">
        <ele>124.1</ele>
        <time>2017-11-18T22:35:46.681Z</time>
      </trkpt>
      <trkpt lat="46.71399" lon="-0.1379">
        <ele>123.8</ele>
        <time>2017-11-18T22:35:47.083Z</time>
      </trkpt>
      <trkpt lat="46.71382" lon="-0.13817">
        <ele>123.9</ele>
        <time>2017-11-18T22:35:47.755Z</time>
      </trkpt>
      <trkpt lat="46.71356" lon="-0.13886">
        <ele>124.5</ele>
        <time>2017-11-18T22:35:49.197Z</time>
      </trkpt>
      <trkpt lat="46.71329" lon="-0.13968">
        <ele>124.2</ele>
        <time>2017-11-18T22:35:50.863Z</time>
      </trkpt>
      <trkpt lat="46.71301" lon="-0.14038">
        <ele>125.8</ele>
        <time>2017-11-18T22:35:52.348Z</time>
      </trkpt>
      <trkpt lat="46.71282" lon="-0.14081">
        <ele>127.7</ele>
        <time>2017-11-18T22:35:53.285Z</time>
      </trkpt>
      <trkpt lat="46.71278" lon="-0.14094">
        <ele>127.6</ele>
        <time>2017-11-18T22:35:53.546Z</time>
      </trkpt>
      <trkpt lat="46.71308" lon="-0.14143">
        <ele>124.8</ele>
        <time>2017-11-18T22:35:54.749Z</time>
      </trkpt>
      <trkpt lat="46.71363" lon="-0.14231">
        <ele>120</ele>
        <time>2017-11-18T22:35:56.930Z</time>
      </trkpt>
      <trkpt lat="46.71387" lon="-0.14262">
        <ele>119</ele>
        <time>2017-11-18T22:35:57.787Z</time>
      </trkpt>
      <trkpt lat="46.71406" lon="-0.14281">
        <ele>118.3</ele>
        <time>2017-11-18T22:35:58.403Z</time>
      </trkpt>
      <trkpt lat="46.71418" lon="-0.14295">
        <ele>117.4</ele>
        <time>2017-11-18T22:35:58.814Z</time>
      </trkpt>
      <trkpt lat="46.71432" lon="-0.14314">
        <ele>116.8</ele>
        <time>2017-11-18T22:35:59.325Z</time>
      </trkpt>
      <trkpt lat="46.71472" lon="-0.14389">
        <ele>115</ele>
        <time>2017-11-18T22:36:01.066Z</time>
      </trkpt>
      <trkpt lat="46.71487" lon="-0.1442">
        <ele>115.5</ele>
        <time>2017-11-18T22:36:01.761Z</time>
      </trkpt>
      <trkpt lat="46.71508" lon="-0.14457">
        <ele>116.1</ele>
        <time>2017-11-18T22:36:02.641Z</time>
      </trkpt>
      <trkpt lat="46.71522" lon="-0.14474">
        <ele>116.5</ele>
        <time>2017-11-18T22:36:03.128Z</time>
      </trkpt>
      <trkpt lat="46.7155" lon="-0.145">
        <ele>116.6</ele>
        <time>2017-11-18T22:36:04.015Z</time>
      </trkpt>
      <trkpt lat="46.71586" lon="-0.14532">
        <ele>115.8</ele>
        <time>2017-11-18T22:36:05.141Z</time>
      </trkpt>
      <trkpt lat="46.7164" lon="-0.14584">
        <ele>116</ele>
        <time>2017-11-18T22:36:06.870Z</time>
      </trkpt>
      <trkpt lat="46.71709" lon="-0.14651">
        <ele>113</ele>
        <time>2017-11-18T22:36:09.085Z</time>
      </trkpt>
      <trkpt lat="46.71757" lon="-0.147">
        <ele>112.9</ele>
        <time>2017-11-18T22:36:10.650Z</time>
      </trkpt>
      <trkpt lat="46.7178" lon="-0.14719">
        <ele>112</ele>
        <time>2017-11-18T22:36:11.356Z</time>
      </trkpt>
      <trkpt lat="46.71792" lon="-0.14726">
        <ele>111.3</ele>
        <time>2017-11-18T22:36:11.701Z</time>
      </trkpt>
      <trkpt lat="46.71828" lon="-0.14736">
        <ele>109.6</ele>
        <time>2017-11-18T22:36:12.680Z</time>
      </trkpt>
      <trkpt lat="46.71878" lon="-0.14737">
        <ele>106.5</ele>
        <time>2017-11-18T22:36:14.016Z</time>
      </trkpt>
      <trkpt lat="46.71943" lon="-0.14736">
        <ele>104.5</ele>
        <time>2017-11-18T22:36:15.753Z</time>
      </trkpt>
      <trkpt lat="46.7196" lon="-0.14734">
        <ele>104.4</ele>
        <time>2017-11-18T22:36:16.209Z</time>
      </trkpt>
      <trkpt lat="46.71973" lon="-0.14728">
        <ele>104.5</ele>
        <time>2017-11-18T22:36:16.573Z</time>
      </trkpt>
      <trkpt lat="46.71996" lon="-0.14716">
        <ele>103.5</ele>
        <time>2017-11-18T22:36:17.226Z</time>
      </trkpt>
      <trkpt lat="46.72054" lon="-0.14684">
        <ele>101.5</ele>
        <time>2017-11-18T22:36:18.883Z</time>
      </trkpt>
      <trkpt lat="46.72069" lon="-0.14682">
        <ele>100.2</ele>
        <time>2017-11-18T22:36:19.285Z</time>
      </trkpt>
      <trkpt lat="46.7208" lon="-0.14684">
        <ele>99.1</ele>
        <time>2017-11-18T22:36:19.581Z</time>
      </trkpt>
      <trkpt lat="46.7209" lon="-0.14691">
        <ele>97.9</ele>
        <time>2017-11-18T22:36:19.877Z</time>
      </trkpt>
      <trkpt lat="46.72104" lon="-0.14708">
        <ele>97</ele>
        <time>2017-11-18T22:36:20.364Z</time>
      </trkpt>
      <trkpt lat="46.72184" lon="-0.1482">
        <ele>95.4</ele>
        <time>2017-11-18T22:36:23.327Z</time>
      </trkpt>
      <trkpt lat="46.72198" lon="-0.14837">
        <ele>96</ele>
        <time>2017-11-18T22:36:23.814Z</time>
      </trkpt>
      <trkpt lat="46.72211" lon="-0.1485">
        <ele>95.6</ele>
        <time>2017-11-18T22:36:24.235Z</time>
      </trkpt>
      <trkpt lat="46.72237" lon="-0.14862">
        <ele>95.5</ele>
        <time>2017-11-18T22:36:24.964Z</time>
      </trkpt>
      <trkpt lat="46.72253" lon="-0.1487">
        <ele>96</ele>
        <time>2017-11-18T22:36:25.416Z</time>
      </trkpt>
      <trkpt lat="46.72266" lon="-0.14881">
        <ele>96</ele>
        <time>2017-11-18T22:36:25.818Z</time>
      </trkpt>
      <trkpt lat="46.7228" lon="-0.14905">
        <ele>96</ele>
        <time>2017-11-18T22:36:26.395Z</time>
      </trkpt>
      <trkpt lat="46.72296" lon="-0.14971">
        <ele>95</ele>
        <time>2017-11-18T22:36:27.677Z</time>
      </trkpt>
      <trkpt lat="46.72304" lon="-0.15002">
        <ele>95</ele>
        <time>2017-11-18T22:36:28.284Z</time>
      </trkpt>
      <trkpt lat="46.7231" lon="-0.15016">
        <ele>95</ele>
        <time>2017-11-18T22:36:28.586Z</time>
      </trkpt>
      <trkpt lat="46.72318" lon="-0.15031">
        <ele>95</ele>
        <time>2017-11-18T22:36:28.934Z</time>
      </trkpt>
      <trkpt lat="46.72332" lon="-0.15051">
        <ele>95</ele>
        <time>2017-11-18T22:36:29.458Z</time>
      </trkpt>
      <trkpt lat="46.72408" lon="-0.15153">
        <ele>95</ele>
        <time>2017-11-18T22:36:32.217Z</time>
      </trkpt>
      <trkpt lat="46.72439" lon="-0.15193">
        <ele>95</ele>
        <time>2017-11-18T22:36:33.323Z</time>
      </trkpt>
      <trkpt lat="46.72469" lon="-0.15225">
        <ele>95</ele>
        <time>2017-11-18T22:36:34.316Z</time>
      </trkpt>
      <trkpt lat="46.72494" lon="-0.1525">
        <ele>95</ele>
        <time>2017-11-18T22:36:35.126Z</time>
      </trkpt>
      <trkpt lat="46.72534" lon="-0.1529">
        <ele>95.2</ele>
        <time>2017-11-18T22:36:36.422Z</time>
      </trkpt>
      <trkpt lat="46.72564" lon="-0.15312">
        <ele>95</ele>
        <time>2017-11-18T22:36:37.319Z</time>
      </trkpt>
      <trkpt lat="46.72588" lon="-0.15323">
        <ele>94.8</ele>
        <time>2017-11-18T22:36:37.991Z</time>
      </trkpt>
      <trkpt lat="46.72605" lon="-0.15327">
        <ele>95.1</ele>
        <time>2017-11-18T22:36:38.451Z</time>
      </trkpt>
      <trkpt lat="46.72659" lon="-0.15335">
        <ele>95.9</ele>
        <time>2017-11-18T22:36:39.901Z</time>
      </trkpt>
      <trkpt lat="46.72718" lon="-0.15345">
        <ele>96.6</ele>
        <time>2017-11-18T22:36:41.488Z</time>
      </trkpt>
      <trkpt lat="46.72746" lon="-0.15351">
        <ele>96.4</ele>
        <time>2017-11-18T22:36:42.244Z</time>
      </trkpt>
      <trkpt lat="46.7277" lon="-0.15355">
        <ele>95.9</ele>
        <time>2017-11-18T22:36:42.889Z</time>
      </trkpt>
      <trkpt lat="46.72796" lon="-0.15353">
        <ele>96</ele>
        <time>2017-11-18T22:36:43.585Z</time>
      </trkpt>
      <trkpt lat="46.72808" lon="-0.15348">
        <ele>96.3</ele>
        <time>2017-11-18T22:36:43.918Z</time>
      </trkpt>
      <trkpt lat="46.72818" lon="-0.15349">
        <ele>95.9</ele>
        <time>2017-11-18T22:36:44.186Z</time>
      </trkpt>
      <trkpt lat="46.7283" lon="-0.15353">
        <ele>95.4</ele>
        <time>2017-11-18T22:36:44.515Z</time>
      </trkpt>
      <trkpt lat="46.72844" lon="-0.15365">
        <ele>96.9</ele>
        <time>2017-11-18T22:36:44.949Z</time>
      </trkpt>
      <trkpt lat="46.72917" lon="-0.15446">
        <ele>96</ele>
        <time>2017-11-18T22:36:47.400Z</time>
      </trkpt>
      <trkpt lat="46.72918" lon="-0.15447">
        <ele>96.1</ele>
        <time>2017-11-18T22:36:47.440Z</time>
      </trkpt>
      <trkpt lat="46.72936" lon="-0.15463">
        <ele>97</ele>
        <time>2017-11-18T22:36:47.996Z</time>
      </trkpt>
      <trkpt lat="46.72945" lon="-0.15468">
        <ele>96.9</ele>
        <time>2017-11-18T22:36:48.253Z</time>
      </trkpt>
      <trkpt lat="46.72978" lon="-0.15478">
        <ele>96.7</ele>
        <time>2017-11-18T22:36:49.154Z</time>
      </trkpt>
      <trkpt lat="46.72993" lon="-0.15485">
        <ele>96.8</ele>
        <time>2017-11-18T22:36:49.575Z</time>
      </trkpt>
      <trkpt lat="46.73" lon="-0.15492">
        <ele>97</ele>
        <time>2017-11-18T22:36:49.802Z</time>
      </trkpt>
      <trkpt lat="46.73002" lon="-0.15496">
        <ele>96.9</ele>
        <time>2017-11-18T22:36:49.893Z</time>
      </trkpt>
      <trkpt lat="46.73001" lon="-0.15499">
        <ele>97</ele>
        <time>2017-11-18T22:36:49.954Z</time>
      </trkpt>
      <trkpt lat="46.72979" lon="-0.15549">
        <ele>94.2</ele>
        <time>2017-11-18T22:36:51.042Z</time>
      </trkpt>
      <trkpt lat="46.72922" lon="-0.15684">
        <ele>98</ele>
        <time>2017-11-18T22:36:53.946Z</time>
      </trkpt>
      <trkpt lat="46.72908" lon="-0.15729">
        <ele>100.5</ele>
        <time>2017-11-18T22:36:54.851Z</time>
      </trkpt>
      <trkpt lat="46.72895" lon="-0.15788">
        <ele>103.4</ele>
        <time>2017-11-18T22:36:55.986Z</time>
      </trkpt>
      <trkpt lat="46.72891" lon="-0.15822">
        <ele>105.5</ele>
        <time>2017-11-18T22:36:56.618Z</time>
      </trkpt>
      <trkpt lat="46.72893" lon="-0.15824">
        <ele>105.5</ele>
        <time>2017-11-18T22:36:56.683Z</time>
      </trkpt>
      <trkpt lat="46.72894" lon="-0.15827">
        <ele>105.5</ele>
        <time>2017-11-18T22:36:56.744Z</time>
      </trkpt>
      <trkpt lat="46.72894" lon="-0.15833">
        <ele>105.8</ele>
        <time>2017-11-18T22:36:56.854Z</time>
      </trkpt>
      <trkpt lat="46.72891" lon="-0.15838">
        <ele>105.9</ele>
        <time>2017-11-18T22:36:56.976Z</time>
      </trkpt>
      <trkpt lat="46.72889" lon="-0.15839">
        <ele>106</ele>
        <time>2017-11-18T22:36:57.032Z</time>
      </trkpt>
      <trkpt lat="46.72887" lon="-0.15838">
        <ele>106.1</ele>
        <time>2017-11-18T22:36:57.088Z</time>
      </trkpt>
      <trkpt lat="46.72876" lon="-0.15911">
        <ele>107.3</ele>
        <time>2017-11-18T22:36:58.457Z</time>
      </trkpt>
      <trkpt lat="46.72874" lon="-0.15992">
        <ele>109.2</ele>
        <time>2017-11-18T22:36:59.941Z</time>
      </trkpt>
      <trkpt lat="46.72864" lon="-0.16097">
        <ele>110.4</ele>
        <time>2017-11-18T22:37:01.883Z</time>
      </trkpt>
      <trkpt lat="46.7286" lon="-0.16129">
        <ele>111</ele>
        <time>2017-11-18T22:37:02.479Z</time>
      </trkpt>
      <trkpt lat="46.72849" lon="-0.16189">
        <ele>112.4</ele>
        <time>2017-11-18T22:37:03.617Z</time>
      </trkpt>
      <trkpt lat="46.72842" lon="-0.1625">
        <ele>113.7</ele>
        <time>2017-11-18T22:37:04.750Z</time>
      </trkpt>
      <trkpt lat="46.72835" lon="-0.16412">
        <ele>118.8</ele>
        <time>2017-11-18T22:37:07.723Z</time>
      </trkpt>
      <trkpt lat="46.72832" lon="-0.16434">
        <ele>120.4</ele>
        <time>2017-11-18T22:37:08.132Z</time>
      </trkpt>
    </trkseg>
  </trk>
</gpx>